Observation data for Adrian on 05/04/2021      Previous  Date  Next       Current Mesonet Observations  Soil Data  Daily Summary Page  Observations in Plain Language
KAD1 040500Z 01016KT 07/06 A3008 RMK A01 T00720060  RH  092%=      5-min Rain = 0
KAD1 040501Z 00019KT 07/06 A3008 RMK A01 T00720061  RH  092%=      5-min Rain = 0
KAD1 040502Z 01019KT 07/06 A3008 RMK A01 T00720060  RH  092%=      5-min Rain = 0
KAD1 040503Z 00016KT 07/06 A3008 RMK A01 T00720060  RH  092%=      5-min Rain = 0
KAD1 040504Z 01015KT 07/06 A3008 RMK A01 T00720060  RH  092%=      5-min Rain = 0
KAD1 040505Z 01015KT 07/06 A3008 RMK A01 T00720061  RH  092%=      5-min Rain = 0
KAD1 040506Z 01015KT 07/06 A3008 RMK A01 T00720061  RH  092%=      5-min Rain = 0
KAD1 040507Z 01019G24KT 07/06 A3008 RMK A01 T00720060  RH  092%=      5-min Rain = 0
KAD1 040508Z 01014KT 07/06 A3008 RMK A01 T00720060  RH  092%=      5-min Rain = 0
KAD1 040509Z 01018G24KT 07/06 A3008 RMK A01 T00720060  RH  092%=      5-min Rain = 0
KAD1 040510Z 00018G25KT 07/06 A3008 RMK A01 T00720060  RH  092%=      5-min Rain = 0
KAD1 040511Z 01017KT 07/06 A3008 RMK A01 T00720060  RH  092%=      5-min Rain = 0
KAD1 040512Z 01016G21KT 07/06 A3008 RMK A01 T00720060  RH  092%=      5-min Rain = 0
KAD1 040513Z 00014KT 07/06 A3008 RMK A01 T00720061  RH  092%=      5-min Rain = 0
KAD1 040514Z 01016KT 07/06 A3008 RMK A01 T00720061  RH  092%=      5-min Rain = 0
KAD1 040515Z 01015KT 07/06 A3008 RMK A01 T00720060  RH  092%=      5-min Rain = 0
KAD1 040516Z 02017KT 07/06 A3008 RMK A01 T00720060  RH  092%=      5-min Rain = 0
KAD1 040517Z 01017KT 07/06 A3008 RMK A01 T00720060  RH  092%=      5-min Rain = 0
KAD1 040518Z 01016KT 07/06 A3008 RMK A01 T00720060  RH  092%=      5-min Rain = 0
KAD1 040519Z 00017KT 07/06 A3008 RMK A01 T00720061  RH  093%=      5-min Rain = 0
KAD1 040520Z 00019KT 07/06 A3008 RMK A01 T00720060  RH  092%=      5-min Rain = 0
KAD1 040521Z 01017G22KT 07/06 A3008 RMK A01 T00720060  RH  092%=      5-min Rain = 0
KAD1 040522Z 01017KT 07/06 A3008 RMK A01 T00720060  RH  092%=      5-min Rain = 0
KAD1 040523Z 01017KT 07/06 A3008 RMK A01 T00720060  RH  092%=      5-min Rain = 0
KAD1 040524Z 01018KT 07/06 A3008 RMK A01 T00720060  RH  092%=      5-min Rain = 0
KAD1 040525Z 00016KT 07/06 A3008 RMK A01 T00720059  RH  092%=      5-min Rain = 0
KAD1 040526Z 01016KT 07/06 A3008 RMK A01 T00720059  RH  092%=      5-min Rain = 0
KAD1 040527Z 36017KT 07/06 A3008 RMK A01 T00720060  RH  092%=      5-min Rain = 0
KAD1 040528Z 00015KT 07/06 A3008 RMK A01 T00720060  RH  092%=      5-min Rain = 0
KAD1 040529Z 00017KT 07/06 A3008 RMK A01 T00720060  RH  092%=      5-min Rain = 0
KAD1 040530Z 01014KT 07/06 A3009 RMK A01 T00710060  RH  092%=      5-min Rain = 0
KAD1 040531Z 00016KT 07/06 A3009 RMK A01 T00710060  RH  093%=      5-min Rain = 0
KAD1 040532Z 00014KT 07/06 A3009 RMK A01 T00710060  RH  093%=      5-min Rain = 0
KAD1 040533Z 00013KT 07/06 A3009 RMK A01 T00710060  RH  093%=      5-min Rain = 0
KAD1 040534Z 01013KT 07/06 A3009 RMK A01 T00710061  RH  093%=      5-min Rain = 0
KAD1 040535Z 01014KT 07/06 A3009 RMK A01 T00710061  RH  093%=      5-min Rain = 0
KAD1 040536Z 36016KT 07/06 A3009 RMK A01 T00710061  RH  093%=      5-min Rain = 0
KAD1 040537Z 00015KT 07/06 A3009 RMK A01 T00710060  RH  093%=      5-min Rain = 0
KAD1 040538Z 01014KT 07/06 A3009 RMK A01 T00710060  RH  093%=      5-min Rain = 0
KAD1 040539Z 00014KT 07/06 A3009 RMK A01 T00710061  RH  093%=      5-min Rain = 0
KAD1 040540Z 00013KT 07/06 A3009 RMK A01 T00710061  RH  093%=      5-min Rain = 0
KAD1 040541Z 01012KT 07/06 A3009 RMK A01 T00710061  RH  093%=      5-min Rain = 0
KAD1 040542Z 01013G18KT 07/06 A3009 RMK A01 T00710061  RH  093%=      5-min Rain = 0
KAD1 040543Z 00017KT 07/06 A3009 RMK A01 T00710061  RH  093%=      5-min Rain = 0
KAD1 040544Z 01014KT 07/06 A3009 RMK A01 T00710060  RH  093%=      5-min Rain = 0
KAD1 040545Z 01013KT 07/06 A3009 RMK A01 T00710060  RH  093%=      5-min Rain = 0
KAD1 040546Z 01015KT 07/06 A3009 RMK A01 T00710060  RH  093%=      5-min Rain = 0
KAD1 040547Z 01015KT 07/06 A3009 RMK A01 T00710060  RH  093%=      5-min Rain = 0
KAD1 040548Z 00014KT 07/06 A3009 RMK A01 T00710060  RH  093%=      5-min Rain = 0
KAD1 040549Z 01015KT 07/06 A3009 RMK A01 T00710060  RH  093%=      5-min Rain = 0
KAD1 040550Z 01014KT 07/06 A3009 RMK A01 T00710059  RH  092%=      5-min Rain = 0
KAD1 040551Z 01012KT 07/06 A3009 RMK A01 T00710060  RH  093%=      5-min Rain = 0
KAD1 040552Z 00013KT 07/06 A301 RMK A01 T00710060  RH  093%=      5-min Rain = 0
KAD1 040553Z 01015KT 07/06 A301 RMK A01 T00710060  RH  093%=      5-min Rain = 0
KAD1 040554Z 01014KT 07/06 A301 RMK A01 T00710060  RH  093%=      5-min Rain = 0
KAD1 040555Z 01014KT 07/06 A301 RMK A01 T00710060  RH  093%=      5-min Rain = 0
KAD1 040556Z 01013KT 07/06 A301 RMK A01 T00710060  RH  093%=      5-min Rain = 0
KAD1 040557Z 01012KT 07/06 A301 RMK A01 T00710060  RH  093%=      5-min Rain = 0
KAD1 040558Z 01014KT 07/06 A301 RMK A01 T00700060  RH  093%=      5-min Rain = 0
KAD1 040559Z 01018KT 07/06 A3009 RMK A01 T00700059  RH  093%=      5-min Rain = 0
KAD1 040600Z 01017KT 07/06 A301 RMK A01 T00710059  RH  092%=      5-min Rain = 0
KAD1 040601Z 01016KT 07/06 A301 RMK A01 T00700059  RH  092%=      5-min Rain = 0
KAD1 040602Z 01017KT 07/06 A301 RMK A01 T00700058  RH  092%=      5-min Rain = 0
KAD1 040603Z 02019KT 07/06 A301 RMK A01 T00700059  RH  092%=      5-min Rain = 0
KAD1 040604Z 02016KT 07/06 A301 RMK A01 T00700058  RH  092%=      5-min Rain = 0
KAD1 040605Z 02021KT 07/06 A3009 RMK A01 T00700058  RH  092%=      5-min Rain = 0
KAD1 040606Z 02016KT 07/06 A301 RMK A01 T00700058  RH  092%=      5-min Rain = 0
KAD1 040607Z 02017KT 07/06 A301 RMK A01 T00700058  RH  092%=      5-min Rain = 0
KAD1 040608Z 01018KT 07/06 A301 RMK A01 T00700058  RH  092%=      5-min Rain = 0
KAD1 040609Z 02016KT 07/06 A301 RMK A01 T00700058  RH  092%=      5-min Rain = 0
KAD1 040610Z 02017KT 07/06 A301 RMK A01 T00690058  RH  092%=      5-min Rain = 0
KAD1 040611Z 01016KT 07/06 A301 RMK A01 T00700058  RH  092%=      5-min Rain = 0
KAD1 040612Z 02014KT 07/06 A301 RMK A01 T00700058  RH  092%=      5-min Rain = 0
KAD1 040613Z 01015KT 07/06 A301 RMK A01 T00700059  RH  093%=      5-min Rain = 0
KAD1 040614Z 01016KT 07/06 A301 RMK A01 T00700059  RH  093%=      5-min Rain = 0
KAD1 040615Z 01017KT 07/06 A301 RMK A01 T00690058  RH  093%=      5-min Rain = 0
KAD1 040616Z 02019G24KT 07/06 A301 RMK A01 T00690058  RH  093%=      5-min Rain = 0
KAD1 040617Z 02018KT 07/06 A3009 RMK A01 T00690057  RH  092%=      5-min Rain = 0
KAD1 040618Z 02017KT 07/06 A301 RMK A01 T00690058  RH  093%=      5-min Rain = 0
KAD1 040619Z 01015KT 07/06 A3009 RMK A01 T00690058  RH  093%=      5-min Rain = 0
KAD1 040620Z 01018KT 07/06 A3009 RMK A01 T00690058  RH  093%=      5-min Rain = 0
KAD1 040621Z 01020KT 07/06 A3009 RMK A01 T00690058  RH  093%=      5-min Rain = 0
KAD1 040622Z 02016G21KT 07/06 A3009 RMK A01 T00690058  RH  092%=      5-min Rain = 0
KAD1 040623Z 02017KT 07/06 A3009 RMK A01 T00690057  RH  092%=      5-min Rain = 0
KAD1 040624Z 02016KT 07/06 A3009 RMK A01 T00690058  RH  093%=      5-min Rain = 0
KAD1 040625Z 02018KT 07/06 A3009 RMK A01 T00690058  RH  093%=      5-min Rain = 0
KAD1 040626Z 02017KT 07/06 A3009 RMK A01 T00690057  RH  092%=      5-min Rain = 0
KAD1 040627Z 02019KT 07/06 A3009 RMK A01 T00680056  RH  092%=      5-min Rain = 0
KAD1 040628Z 02019KT 07/06 A3009 RMK A01 T00680056  RH  092%=      5-min Rain = 0
KAD1 040629Z 02020KT 07/06 A3009 RMK A01 T00680056  RH  092%=      5-min Rain = 0
KAD1 040630Z 03020KT 07/06 A3009 RMK A01 T00680056  RH  092%=      5-min Rain = 0
KAD1 040631Z 02016KT 07/06 A3009 RMK A01 T00680056  RH  092%=      5-min Rain = 0
KAD1 040632Z 02015KT 07/06 A3009 RMK A01 T00680057  RH  092%=      5-min Rain = 0
KAD1 040633Z 02016KT 07/06 A3009 RMK A01 T00680057  RH  093%=      5-min Rain = 0
KAD1 040634Z 02017G22KT 07/06 A3009 RMK A01 T00680057  RH  093%=      5-min Rain = 0
KAD1 040635Z 02018KT 07/06 A3009 RMK A01 T00680057  RH  093%=      5-min Rain = 0
KAD1 040636Z 02019KT 07/06 A3009 RMK A01 T00680057  RH  093%=      5-min Rain = 0
KAD1 040637Z 02020KT 07/06 A3009 RMK A01 T00680056  RH  092%=      5-min Rain = 0
KAD1 040638Z 02018KT 07/06 A3009 RMK A01 T00680055  RH  092%=      5-min Rain = 0
KAD1 040639Z 02017KT 07/06 A3009 RMK A01 T00670056  RH  092%=      5-min Rain = 0
KAD1 040640Z 02019KT 07/06 A3009 RMK A01 T00680056  RH  092%=      5-min Rain = 0
KAD1 040641Z 02017KT 07/06 A3009 RMK A01 T00680056  RH  092%=      5-min Rain = 0
KAD1 040642Z 02019G24KT 07/06 A3009 RMK A01 T00680056  RH  092%=      5-min Rain = 0
KAD1 040643Z 02019G24KT 07/06 A3009 RMK A01 T00680056  RH  092%=      5-min Rain = 0
KAD1 040644Z 01017KT 07/06 A3009 RMK A01 T00680055  RH  092%=      5-min Rain = 0
KAD1 040645Z 02016KT 07/06 A3009 RMK A01 T00680056  RH  092%=      5-min Rain = 0
KAD1 040646Z 02018KT 07/06 A3009 RMK A01 T00680056  RH  092%=      5-min Rain = 0
KAD1 040647Z 02016KT 07/06 A3009 RMK A01 T00680056  RH  092%=      5-min Rain = 0
KAD1 040648Z 02020KT 07/06 A3009 RMK A01 T00680056  RH  092%=      5-min Rain = 0
KAD1 040649Z 02017KT 07/06 A3009 RMK A01 T00680055  RH  091%=      5-min Rain = 0
KAD1 040650Z 02017KT 07/06 A3009 RMK A01 T00680055  RH  092%=      5-min Rain = 0
KAD1 040651Z 02018KT 07/06 A3009 RMK A01 T00680055  RH  092%=      5-min Rain = 0
KAD1 040652Z 02015KT 07/06 A3009 RMK A01 T00680055  RH  092%=      5-min Rain = 0
KAD1 040653Z 02016KT 07/06 A3009 RMK A01 T00680056  RH  092%=      5-min Rain = 0
KAD1 040654Z 02016KT 07/06 A3009 RMK A01 T00680055  RH  092%=      5-min Rain = 0
KAD1 040655Z 02016KT 07/06 A3009 RMK A01 T00680055  RH  092%=      5-min Rain = 0
KAD1 040656Z 02015KT 07/06 A3009 RMK A01 T00680055  RH  092%=      5-min Rain = 0
KAD1 040657Z 02016KT 07/06 A3008 RMK A01 T00680055  RH  092%=      5-min Rain = 0
KAD1 040658Z 02017KT 07/06 A3008 RMK A01 T00680056  RH  092%=      5-min Rain = 0
KAD1 040659Z 02017KT 07/06 A3008 RMK A01 T00680055  RH  092%=      5-min Rain = 0
KAD1 040700Z 02016KT 07/06 A3008 RMK A01 T00680055  RH  091%=      5-min Rain = 0
KAD1 040701Z 02014KT 07/06 A3008 RMK A01 T00680055  RH  092%=      5-min Rain = 0
KAD1 040702Z 02014KT 07/06 A3008 RMK A01 T00680056  RH  092%=      5-min Rain = 0
KAD1 040703Z 02016KT 07/06 A3008 RMK A01 T00680056  RH  092%=      5-min Rain = 0
KAD1 040704Z 02017KT 07/06 A3008 RMK A01 T00680055  RH  092%=      5-min Rain = 0
KAD1 040705Z 02017KT 07/06 A3008 RMK A01 T00680055  RH  092%=      5-min Rain = 0
KAD1 040706Z 02017KT 07/05 A3008 RMK A01 T00680054  RH  091%=      5-min Rain = 0
KAD1 040707Z 02016KT 07/05 A3008 RMK A01 T00680054  RH  091%=      5-min Rain = 0
KAD1 040708Z 02017KT 07/05 A3008 RMK A01 T00680054  RH  091%=      5-min Rain = 0
KAD1 040709Z 02016KT 07/05 A3008 RMK A01 T00680054  RH  091%=      5-min Rain = 0
KAD1 040710Z 02016G21KT 07/05 A3008 RMK A01 T00680054  RH  091%=      5-min Rain = 0
KAD1 040711Z 02019KT 07/05 A3008 RMK A01 T00680054  RH  091%=      5-min Rain = 0
KAD1 040712Z 02016KT 07/05 A3008 RMK A01 T00680054  RH  091%=      5-min Rain = 0
KAD1 040713Z 02015KT 07/05 A3008 RMK A01 T00680054  RH  091%=      5-min Rain = 0
KAD1 040714Z 02017KT 07/05 A3008 RMK A01 T00680054  RH  091%=      5-min Rain = 0
KAD1 040715Z 02017KT 07/05 A3008 RMK A01 T00680054  RH  091%=      5-min Rain = 0
KAD1 040716Z 02018G23KT 07/05 A3008 RMK A01 T00680054  RH  091%=      5-min Rain = 0
KAD1 040717Z 02019KT 07/05 A3008 RMK A01 T00680052  RH  090%=      5-min Rain = 0
KAD1 040718Z 02016KT 07/05 A3008 RMK A01 T00680052  RH  090%=      5-min Rain = 0
KAD1 040719Z 02017KT 07/05 A3008 RMK A01 T00680052  RH  090%=      5-min Rain = 0
KAD1 040720Z 02017G22KT 07/05 A3008 RMK A01 T00680052  RH  090%=      5-min Rain = 0
KAD1 040721Z 03016KT 07/05 A3008 RMK A01 T00680052  RH  090%=      5-min Rain = 0
KAD1 040722Z 02016KT 07/05 A3008 RMK A01 T00680053  RH  090%=      5-min Rain = 0
KAD1 040723Z 02016KT 07/05 A3008 RMK A01 T00680052  RH  090%=      5-min Rain = 0
KAD1 040724Z 03017KT 07/05 A3008 RMK A01 T00680052  RH  090%=      5-min Rain = 0
KAD1 040725Z 02016KT 07/05 A3008 RMK A01 T00680052  RH  089%=      5-min Rain = 0
KAD1 040726Z 02019KT 07/05 A3008 RMK A01 T00680051  RH  089%=      5-min Rain = 0
KAD1 040727Z 02017KT 07/05 A3008 RMK A01 T00690051  RH  088%=      5-min Rain = 0
KAD1 040728Z 03017KT 07/05 A3008 RMK A01 T00690051  RH  088%=      5-min Rain = 0
KAD1 040729Z 02015KT 07/05 A3008 RMK A01 T00680051  RH  089%=      5-min Rain = 0
KAD1 040730Z 02015KT 07/05 A3008 RMK A01 T00690052  RH  089%=      5-min Rain = 0
KAD1 040731Z 02018KT 07/05 A3007 RMK A01 T00690052  RH  089%=      5-min Rain = 0
KAD1 040732Z 02016KT 07/05 A3008 RMK A01 T00690050  RH  088%=      5-min Rain = 0
KAD1 040733Z 02016KT 07/05 A3008 RMK A01 T00690050  RH  088%=      5-min Rain = 0
KAD1 040734Z 02015KT 07/05 A3008 RMK A01 T00690051  RH  088%=      5-min Rain = 0
KAD1 040735Z 02015KT 07/05 A3008 RMK A01 T00690052  RH  089%=      5-min Rain = 0
KAD1 040736Z 02014KT 07/05 A3008 RMK A01 T00690052  RH  089%=      5-min Rain = 0
KAD1 040737Z 02017KT 07/05 A3008 RMK A01 T00690052  RH  089%=      5-min Rain = 0
KAD1 040738Z 01019KT 07/05 A3008 RMK A01 T00690051  RH  088%=      5-min Rain = 0
KAD1 040739Z 01016KT 07/05 A3008 RMK A01 T00690050  RH  088%=      5-min Rain = 0
KAD1 040740Z 02017KT 07/05 A3008 RMK A01 T00690050  RH  088%=      5-min Rain = 0
KAD1 040741Z 02016KT 07/05 A3008 RMK A01 T00690050  RH  088%=      5-min Rain = 0
KAD1 040742Z 02018KT 07/05 A3008 RMK A01 T00690050  RH  088%=      5-min Rain = 0
KAD1 040743Z 01018KT 07/05 A3008 RMK A01 T00690049  RH  088%=      5-min Rain = 0
KAD1 040744Z 02016KT 07/05 A3008 RMK A01 T00690049  RH  087%=      5-min Rain = 0
KAD1 040745Z 02018KT 07/05 A3008 RMK A01 T00690049  RH  087%=      5-min Rain = 0
KAD1 040746Z 01017KT 07/05 A3008 RMK A01 T00690048  RH  087%=      5-min Rain = 0
KAD1 040747Z 02015KT 07/05 A3008 RMK A01 T00690049  RH  087%=      5-min Rain = 0
KAD1 040748Z 02016KT 07/05 A3008 RMK A01 T00690049  RH  087%=      5-min Rain = 0
KAD1 040749Z 02016KT 07/05 A3008 RMK A01 T00680049  RH  088%=      5-min Rain = 0
KAD1 040750Z 01014KT 07/05 A3008 RMK A01 T00680049  RH  088%=      5-min Rain = 0
KAD1 040751Z 01016KT 07/05 A3008 RMK A01 T00680050  RH  088%=      5-min Rain = 0
KAD1 040752Z 01015KT 07/05 A3008 RMK A01 T00680050  RH  088%=      5-min Rain = 0
KAD1 040753Z 01015KT 07/05 A3008 RMK A01 T00680049  RH  088%=      5-min Rain = 0
KAD1 040754Z 01014KT 07/05 A3009 RMK A01 T00680049  RH  088%=      5-min Rain = 0
KAD1 040755Z 01014KT 07/05 A3009 RMK A01 T00680050  RH  088%=      5-min Rain = 0
KAD1 040756Z 00014KT 07/05 A3009 RMK A01 T00680049  RH  088%=      5-min Rain = 0
KAD1 040757Z 01016KT 07/05 A3009 RMK A01 T00680050  RH  088%=      5-min Rain = 0
KAD1 040758Z 01014KT 07/05 A3009 RMK A01 T00680049  RH  088%=      5-min Rain = 0
KAD1 040759Z 00014KT 07/05 A3009 RMK A01 T00680050  RH  088%=      5-min Rain = 0
KAD1 040800Z 01012KT 07/05 A3009 RMK A01 T00680049  RH  088%=      5-min Rain = 0
KAD1 040801Z 01015KT 07/05 A3009 RMK A01 T00680049  RH  088%=      5-min Rain = 0
KAD1 040802Z 01015KT 07/05 A3009 RMK A01 T00680049  RH  087%=      5-min Rain = 0
KAD1 040803Z 01014KT 07/05 A3009 RMK A01 T00680048  RH  087%=      5-min Rain = 0
KAD1 040804Z 01013KT 07/05 A3009 RMK A01 T00680047  RH  087%=      5-min Rain = 0
KAD1 040805Z 01014KT 07/05 A3009 RMK A01 T00680048  RH  087%=      5-min Rain = 0
KAD1 040806Z 01015KT 07/05 A3009 RMK A01 T00680048  RH  087%=      5-min Rain = 0
KAD1 040807Z 01015KT 07/05 A3009 RMK A01 T00680048  RH  087%=      5-min Rain = 0
KAD1 040808Z 01014KT 07/05 A3009 RMK A01 T00680048  RH  087%=      5-min Rain = 0
KAD1 040809Z 01012KT 07/05 A3009 RMK A01 T00680048  RH  087%=      5-min Rain = 0
KAD1 040810Z 01014KT 07/05 A3009 RMK A01 T00670048  RH  088%=      5-min Rain = 0
KAD1 040811Z 01011KT 07/05 A3009 RMK A01 T00670047  RH  087%=      5-min Rain = 0
KAD1 040812Z 01011KT 07/05 A3009 RMK A01 T00670048  RH  088%=      5-min Rain = 0
KAD1 040813Z 01012KT 07/05 A301 RMK A01 T00670049  RH  088%=      5-min Rain = 0
KAD1 040814Z 01009KT 07/05 A301 RMK A01 T00670048  RH  088%=      5-min Rain = 0
KAD1 040815Z 01011KT 07/05 A301 RMK A01 T00670049  RH  088%=      5-min Rain = 0
KAD1 040816Z 01012KT 07/05 A301 RMK A01 T00670048  RH  088%=      5-min Rain = 0
KAD1 040817Z 01012KT 07/05 A301 RMK A01 T00680048  RH  087%=      5-min Rain = 0
KAD1 040818Z 01012KT 07/05 A301 RMK A01 T00680048  RH  088%=      5-min Rain = 0
KAD1 040819Z 01011KT 07/05 A301 RMK A01 T00680048  RH  087%=      5-min Rain = 0
KAD1 040820Z 01012KT 07/05 A301 RMK A01 T00680048  RH  087%=      5-min Rain = 0
KAD1 040821Z 01013KT 07/05 A301 RMK A01 T00680048  RH  087%=      5-min Rain = 0
KAD1 040822Z 01015KT 07/05 A3009 RMK A01 T00680047  RH  087%=      5-min Rain = 0
KAD1 040823Z 01013KT 07/05 A3009 RMK A01 T00680047  RH  086%=      5-min Rain = 0
KAD1 040824Z 01013KT 07/05 A3009 RMK A01 T00680047  RH  087%=      5-min Rain = 0
KAD1 040825Z 01014KT 07/05 A3009 RMK A01 T00680048  RH  087%=      5-min Rain = 0
KAD1 040826Z 01014KT 07/05 A3009 RMK A01 T00680047  RH  087%=      5-min Rain = 0
KAD1 040827Z 01014KT 07/05 A3009 RMK A01 T00680047  RH  087%=      5-min Rain = 0
KAD1 040828Z 01013KT 07/05 A3009 RMK A01 T00680047  RH  087%=      5-min Rain = 0
KAD1 040829Z 01012KT 07/05 A3009 RMK A01 T00680048  RH  087%=      5-min Rain = 0
KAD1 040830Z 02015KT 07/05 A3009 RMK A01 T00680048  RH  087%=      5-min Rain = 0
KAD1 040831Z 01012KT 07/05 A3009 RMK A01 T00680047  RH  086%=      5-min Rain = 0
KAD1 040832Z 01013KT 07/05 A3009 RMK A01 T00680047  RH  087%=      5-min Rain = 0
KAD1 040833Z 01012KT 07/05 A3009 RMK A01 T00680047  RH  087%=      5-min Rain = 0
KAD1 040834Z 01012KT 07/05 A3009 RMK A01 T00680047  RH  087%=      5-min Rain = 0
KAD1 040835Z 01012KT 07/05 A3009 RMK A01 T00680048  RH  087%=      5-min Rain = 0
KAD1 040836Z 01014KT 07/05 A3009 RMK A01 T00680047  RH  087%=      5-min Rain = 0
KAD1 040837Z 01013KT 07/05 A3009 RMK A01 T00680046  RH  086%=      5-min Rain = 0
KAD1 040838Z 01013KT 07/05 A301 RMK A01 T00690046  RH  086%=      5-min Rain = 0
KAD1 040839Z 02013KT 07/05 A3009 RMK A01 T00680046  RH  086%=      5-min Rain = 0
KAD1 040840Z 01012KT 07/05 A301 RMK A01 T00690046  RH  086%=      5-min Rain = 0
KAD1 040841Z 01013KT 07/05 A301 RMK A01 T00690047  RH  086%=      5-min Rain = 0
KAD1 040842Z 02013KT 07/05 A3009 RMK A01 T00690047  RH  086%=      5-min Rain = 0
KAD1 040843Z 01014KT 07/05 A3009 RMK A01 T00690047  RH  086%=      5-min Rain = 0.01
KAD1 040844Z 01013KT 07/05 A301 RMK A01 T00690046  RH  086%=      5-min Rain = 0
KAD1 040845Z 01013KT 07/05 A301 RMK A01 T00690046  RH  086%=      5-min Rain = 0
KAD1 040846Z 01013KT 07/05 A301 RMK A01 T00690046  RH  086%=      5-min Rain = 0
KAD1 040847Z 01013KT 07/05 A301 RMK A01 T00690046  RH  086%=      5-min Rain = 0
KAD1 040848Z 01013KT 07/05 A301 RMK A01 T00690046  RH  086%=      5-min Rain = 0
KAD1 040849Z 01014KT 07/05 A301 RMK A01 T00690046  RH  085%=      5-min Rain = 0
KAD1 040850Z 02011KT 07/05 A301 RMK A01 T00690046  RH  085%=      5-min Rain = 0
KAD1 040851Z 01012KT 07/05 A301 RMK A01 T00690047  RH  086%=      5-min Rain = 0
KAD1 040852Z 01012KT 07/05 A301 RMK A01 T00690047  RH  086%=      5-min Rain = 0
KAD1 040853Z 01011KT 07/05 A301 RMK A01 T00680047  RH  086%=      5-min Rain = 0
KAD1 040854Z 00010KT 07/05 A301 RMK A01 T00680047  RH  086%=      5-min Rain = 0
KAD1 040855Z 01011KT 07/05 A301 RMK A01 T00680047  RH  086%=      5-min Rain = 0
KAD1 040856Z 00011KT 07/05 A301 RMK A01 T00680046  RH  086%=      5-min Rain = 0
KAD1 040857Z 00013KT 07/05 A301 RMK A01 T00680046  RH  086%=      5-min Rain = 0
KAD1 040858Z 01011KT 07/05 A301 RMK A01 T00670046  RH  086%=      5-min Rain = 0
KAD1 040859Z 00014KT 07/05 A301 RMK A01 T00670046  RH  087%=      5-min Rain = 0
KAD1 040900Z 00011KT 07/05 A301 RMK A01 T00670045  RH  086%=      5-min Rain = 0
KAD1 040901Z 01012KT 07/05 A301 RMK A01 T00670046  RH  086%=      5-min Rain = 0
KAD1 040902Z 00010KT 07/05 A301 RMK A01 T00660045  RH  087%=      5-min Rain = 0
KAD1 040903Z 01009KT 07/05 A301 RMK A01 T00660046  RH  087%=      5-min Rain = 0
KAD1 040904Z 00009KT 07/05 A301 RMK A01 T00650047  RH  088%=      5-min Rain = 0
KAD1 040905Z 01011KT 07/05 A301 RMK A01 T00650047  RH  088%=      5-min Rain = 0
KAD1 040906Z 01011KT 07/05 A301 RMK A01 T00650046  RH  088%=      5-min Rain = 0
KAD1 040907Z 00013KT 07/05 A301 RMK A01 T00650046  RH  087%=      5-min Rain = 0
KAD1 040908Z 01011KT 07/05 A301 RMK A01 T00650045  RH  087%=      5-min Rain = 0
KAD1 040909Z 00011KT 07/05 A301 RMK A01 T00650046  RH  088%=      5-min Rain = 0
KAD1 040910Z 00010KT 07/05 A301 RMK A01 T00650046  RH  088%=      5-min Rain = 0
KAD1 040911Z 00012KT 06/05 A301 RMK A01 T00640046  RH  088%=      5-min Rain = 0
KAD1 040912Z 01010KT 06/05 A301 RMK A01 T00640046  RH  088%=      5-min Rain = 0
KAD1 040913Z 00011KT 06/05 A301 RMK A01 T00640046  RH  088%=      5-min Rain = 0
KAD1 040914Z 36009KT 06/05 A301 RMK A01 T00640046  RH  089%=      5-min Rain = 0
KAD1 040915Z 00010KT 06/05 A301 RMK A01 T00630046  RH  089%=      5-min Rain = 0
KAD1 040916Z 00011KT 06/05 A301 RMK A01 T00640046  RH  088%=      5-min Rain = 0
KAD1 040917Z 00009KT 06/05 A3011 RMK A01 T00640045  RH  088%=      5-min Rain = 0
KAD1 040918Z 00011KT 06/05 A3011 RMK A01 T00640046  RH  089%=      5-min Rain = 0
KAD1 040919Z 36009KT 06/05 A3011 RMK A01 T00630045  RH  088%=      5-min Rain = 0
KAD1 040920Z 36009KT 06/05 A3011 RMK A01 T00630046  RH  089%=      5-min Rain = 0
KAD1 040921Z 35009G14KT 06/05 A3011 RMK A01 T00630046  RH  089%=      5-min Rain = 0
KAD1 040922Z 36012KT 06/05 A3011 RMK A01 T00630046  RH  089%=      5-min Rain = 0
KAD1 040923Z 36012KT 06/05 A3011 RMK A01 T00630045  RH  089%=      5-min Rain = 0
KAD1 040924Z 36011KT 06/05 A3011 RMK A01 T00630045  RH  088%=      5-min Rain = 0
KAD1 040925Z 00011KT 06/05 A3011 RMK A01 T00630045  RH  088%=      5-min Rain = 0
KAD1 040926Z 36012KT 06/05 A3011 RMK A01 T00630045  RH  088%=      5-min Rain = 0
KAD1 040927Z 00011KT 06/05 A3011 RMK A01 T00630045  RH  088%=      5-min Rain = 0
KAD1 040928Z 36012KT 06/05 A3011 RMK A01 T00630045  RH  088%=      5-min Rain = 0
KAD1 040929Z 00010KT 06/05 A3011 RMK A01 T00630045  RH  088%=      5-min Rain = 0
KAD1 040930Z 00010KT 06/05 A3011 RMK A01 T00620045  RH  089%=      5-min Rain = 0
KAD1 040931Z 00010KT 06/05 A3011 RMK A01 T00620045  RH  089%=      5-min Rain = 0
KAD1 040932Z 01011KT 06/05 A3011 RMK A01 T00610045  RH  089%=      5-min Rain = 0
KAD1 040933Z 36012KT 06/04 A3011 RMK A01 T00610044  RH  089%=      5-min Rain = 0
KAD1 040934Z 00012KT 06/04 A3011 RMK A01 T00620044  RH  088%=      5-min Rain = 0
KAD1 040935Z 00010KT 06/04 A3011 RMK A01 T00610043  RH  088%=      5-min Rain = 0
KAD1 040936Z 00012KT 06/04 A3011 RMK A01 T00610044  RH  089%=      5-min Rain = 0
KAD1 040937Z 00011KT 06/04 A3011 RMK A01 T00610044  RH  089%=      5-min Rain = 0
KAD1 040938Z 00010KT 06/04 A3011 RMK A01 T00610044  RH  089%=      5-min Rain = 0
KAD1 040939Z 00012KT 06/04 A3011 RMK A01 T00610044  RH  089%=      5-min Rain = 0
KAD1 040940Z 36011KT 06/04 A3011 RMK A01 T00610043  RH  088%=      5-min Rain = 0
KAD1 040941Z 01012KT 06/04 A3011 RMK A01 T00620043  RH  088%=      5-min Rain = 0
KAD1 040942Z 36012KT 06/04 A3011 RMK A01 T00620043  RH  087%=      5-min Rain = 0
KAD1 040943Z 00012KT 06/04 A3011 RMK A01 T00620042  RH  087%=      5-min Rain = 0
KAD1 040944Z 01011KT 06/04 A3011 RMK A01 T00620042  RH  087%=      5-min Rain = 0
KAD1 040945Z 36009KT 06/04 A3011 RMK A01 T00620042  RH  087%=      5-min Rain = 0
KAD1 040946Z 01011KT 06/04 A3011 RMK A01 T00610043  RH  088%=      5-min Rain = 0
KAD1 040947Z 00010KT 06/04 A3012 RMK A01 T00610042  RH  088%=      5-min Rain = 0
KAD1 040948Z 01011KT 06/04 A3012 RMK A01 T00610043  RH  088%=      5-min Rain = 0
KAD1 040949Z 01012KT 06/04 A3012 RMK A01 T00610042  RH  088%=      5-min Rain = 0
KAD1 040950Z 01010KT 06/04 A3012 RMK A01 T00610042  RH  087%=      5-min Rain = 0
KAD1 040951Z 00009KT 06/04 A3011 RMK A01 T00610043  RH  088%=      5-min Rain = 0
KAD1 040952Z 00010KT 06/04 A3012 RMK A01 T00610043  RH  088%=      5-min Rain = 0
KAD1 040953Z 01011KT 06/04 A3012 RMK A01 T00610043  RH  088%=      5-min Rain = 0
KAD1 040954Z 01010KT 06/04 A3012 RMK A01 T00610042  RH  088%=      5-min Rain = 0
KAD1 040955Z 00010KT 06/04 A3012 RMK A01 T00610043  RH  088%=      5-min Rain = 0
KAD1 040956Z 01010KT 06/04 A3012 RMK A01 T00610043  RH  088%=      5-min Rain = 0
KAD1 040957Z 00009KT 06/04 A3012 RMK A01 T00610042  RH  088%=      5-min Rain = 0
KAD1 040958Z 01010KT 06/04 A3012 RMK A01 T00600042  RH  088%=      5-min Rain = 0
KAD1 040959Z 01010KT 06/04 A3012 RMK A01 T00610042  RH  088%=      5-min Rain = 0
KAD1 041000Z 00011KT 06/04 A3012 RMK A01 T00610042  RH  088%=      5-min Rain = 0
KAD1 041001Z 00010KT 06/04 A3012 RMK A01 T00610042  RH  088%=      5-min Rain = 0
KAD1 041002Z 36011KT 06/04 A3012 RMK A01 T00610041  RH  087%=      5-min Rain = 0
KAD1 041003Z 00010KT 06/04 A3012 RMK A01 T00610041  RH  087%=      5-min Rain = 0
KAD1 041004Z 00008KT 06/04 A3012 RMK A01 T00610042  RH  087%=      5-min Rain = 0
KAD1 041005Z 00010KT 06/04 A3012 RMK A01 T00610042  RH  088%=      5-min Rain = 0
KAD1 041006Z 36008KT 06/04 A3012 RMK A01 T00610042  RH  088%=      5-min Rain = 0
KAD1 041007Z 36008KT 06/04 A3012 RMK A01 T00610043  RH  088%=      5-min Rain = 0
KAD1 041008Z 00009KT 06/04 A3012 RMK A01 T00610043  RH  088%=      5-min Rain = 0
KAD1 041009Z 36009KT 06/04 A3012 RMK A01 T00610042  RH  088%=      5-min Rain = 0
KAD1 041010Z 00009KT 06/04 A3012 RMK A01 T00610042  RH  088%=      5-min Rain = 0
KAD1 041011Z 00009KT 06/04 A3012 RMK A01 T00610042  RH  088%=      5-min Rain = 0
KAD1 041012Z 36009KT 06/04 A3012 RMK A01 T00610042  RH  088%=      5-min Rain = 0
KAD1 041013Z 00010KT 06/04 A3012 RMK A01 T00610042  RH  088%=      5-min Rain = 0
KAD1 041014Z 00008KT 06/04 A3012 RMK A01 T00600042  RH  088%=      5-min Rain = 0
KAD1 041015Z 00010KT 06/04 A3012 RMK A01 T00600042  RH  088%=      5-min Rain = 0
KAD1 041016Z 00009KT 06/04 A3012 RMK A01 T00600042  RH  088%=      5-min Rain = 0
KAD1 041017Z 01009KT 06/04 A3012 RMK A01 T00600041  RH  088%=      5-min Rain = 0
KAD1 041018Z 01011KT 06/04 A3012 RMK A01 T00600041  RH  088%=      5-min Rain = 0
KAD1 041019Z 01011KT 06/04 A3012 RMK A01 T00600041  RH  088%=      5-min Rain = 0
KAD1 041020Z 00010KT 06/04 A3012 RMK A01 T00600040  RH  087%=      5-min Rain = 0
KAD1 041021Z 01009KT 06/04 A3012 RMK A01 T00600041  RH  087%=      5-min Rain = 0
KAD1 041022Z 01009KT 06/04 A3012 RMK A01 T00600041  RH  087%=      5-min Rain = 0
KAD1 041023Z 00010KT 06/04 A3012 RMK A01 T00600040  RH  088%=      5-min Rain = 0
KAD1 041024Z 00008KT 06/04 A3012 RMK A01 T00600041  RH  088%=      5-min Rain = 0
KAD1 041025Z 36009KT 06/04 A3012 RMK A01 T00590040  RH  088%=      5-min Rain = 0
KAD1 041026Z 36008KT 06/04 A3012 RMK A01 T00590040  RH  088%=      5-min Rain = 0
KAD1 041027Z 35008KT 06/04 A3013 RMK A01 T00590040  RH  088%=      5-min Rain = 0
KAD1 041028Z 35007KT 06/04 A3013 RMK A01 T00590041  RH  088%=      5-min Rain = 0
KAD1 041029Z 35007KT 06/04 A3013 RMK A01 T00580041  RH  088%=      5-min Rain = 0
KAD1 041030Z 35007KT 06/04 A3013 RMK A01 T00580040  RH  089%=      5-min Rain = 0
KAD1 041031Z 35007KT 06/04 A3013 RMK A01 T00580040  RH  089%=      5-min Rain = 0
KAD1 041032Z 35007KT 06/04 A3013 RMK A01 T00570040  RH  089%=      5-min Rain = 0
KAD1 041033Z 35007KT 06/04 A3013 RMK A01 T00570041  RH  089%=      5-min Rain = 0
KAD1 041034Z 35008KT 06/04 A3013 RMK A01 T00570041  RH  089%=      5-min Rain = 0
KAD1 041035Z 35008KT 06/04 A3013 RMK A01 T00570040  RH  089%=      5-min Rain = 0
KAD1 041036Z 35007KT 06/04 A3013 RMK A01 T00570041  RH  089%=      5-min Rain = 0
KAD1 041037Z 35006KT 06/04 A3013 RMK A01 T00580041  RH  089%=      5-min Rain = 0
KAD1 041038Z 35007KT 06/04 A3013 RMK A01 T00570040  RH  089%=      5-min Rain = 0
KAD1 041039Z 35006KT 06/04 A3013 RMK A01 T00570041  RH  089%=      5-min Rain = 0
KAD1 041040Z 35006KT 06/04 A3013 RMK A01 T00560040  RH  089%=      5-min Rain = 0
KAD1 041041Z 35007KT 06/04 A3013 RMK A01 T00560040  RH  090%=      5-min Rain = 0
KAD1 041042Z 34009KT 06/04 A3013 RMK A01 T00550040  RH  090%=      5-min Rain = 0
KAD1 041043Z 34008KT 06/04 A3013 RMK A01 T00560040  RH  090%=      5-min Rain = 0
KAD1 041044Z 34008KT 06/04 A3013 RMK A01 T00560040  RH  090%=      5-min Rain = 0
KAD1 041045Z 34008KT 06/04 A3013 RMK A01 T00560040  RH  090%=      5-min Rain = 0
KAD1 041046Z 35007KT 06/04 A3013 RMK A01 T00560040  RH  090%=      5-min Rain = 0
KAD1 041047Z 34008KT 06/04 A3013 RMK A01 T00550040  RH  090%=      5-min Rain = 0
KAD1 041048Z 35007KT 06/04 A3013 RMK A01 T00550041  RH  091%=      5-min Rain = 0
KAD1 041049Z 35008KT 06/04 A3013 RMK A01 T00550041  RH  091%=      5-min Rain = 0
KAD1 041050Z 34008KT 06/04 A3013 RMK A01 T00550041  RH  091%=      5-min Rain = 0
KAD1 041051Z 35008KT 06/04 A3014 RMK A01 T00550041  RH  091%=      5-min Rain = 0
KAD1 041052Z 35009KT 06/04 A3014 RMK A01 T00550041  RH  090%=      5-min Rain = 0
KAD1 041053Z 35009KT 06/04 A3014 RMK A01 T00550041  RH  090%=      5-min Rain = 0
KAD1 041054Z 35009KT 06/04 A3013 RMK A01 T00560041  RH  090%=      5-min Rain = 0
KAD1 041055Z 35009KT 06/04 A3013 RMK A01 T00560041  RH  090%=      5-min Rain = 0
KAD1 041056Z 35008KT 06/04 A3013 RMK A01 T00560041  RH  090%=      5-min Rain = 0
KAD1 041057Z 36009KT 06/04 A3013 RMK A01 T00560041  RH  090%=      5-min Rain = 0
KAD1 041058Z 36011KT 06/04 A3013 RMK A01 T00560041  RH  090%=      5-min Rain = 0
KAD1 041059Z 36010KT 06/04 A3013 RMK A01 T00580041  RH  089%=      5-min Rain = 0
KAD1 041100Z 00010KT 06/04 A3013 RMK A01 T00590041  RH  089%=      5-min Rain = 0
KAD1 041101Z 36010KT 06/04 A3013 RMK A01 T00590041  RH  088%=      5-min Rain = 0
KAD1 041102Z 36010KT 06/04 A3013 RMK A01 T00590042  RH  088%=      5-min Rain = 0
KAD1 041103Z 00010KT 06/04 A3013 RMK A01 T00590041  RH  088%=      5-min Rain = 0
KAD1 041104Z 00009KT 06/04 A3013 RMK A01 T00590042  RH  088%=      5-min Rain = 0
KAD1 041105Z 36009KT 06/04 A3013 RMK A01 T00590042  RH  088%=      5-min Rain = 0
KAD1 041106Z 00011KT 06/04 A3013 RMK A01 T00590041  RH  088%=      5-min Rain = 0
KAD1 041107Z 00010KT 06/04 A3013 RMK A01 T00600041  RH  088%=      5-min Rain = 0
KAD1 041108Z 36012KT 06/04 A3013 RMK A01 T00600041  RH  088%=      5-min Rain = 0
KAD1 041109Z 00010KT 06/04 A3013 RMK A01 T00600041  RH  087%=      5-min Rain = 0
KAD1 041110Z 00010KT 06/04 A3013 RMK A01 T00600042  RH  088%=      5-min Rain = 0
KAD1 041111Z 00010KT 06/04 A3013 RMK A01 T00600041  RH  088%=      5-min Rain = 0
KAD1 041112Z 00011KT 06/04 A3013 RMK A01 T00600041  RH  087%=      5-min Rain = 0
KAD1 041113Z 00010KT 06/04 A3013 RMK A01 T00600041  RH  087%=      5-min Rain = 0
KAD1 041114Z 00009KT 06/04 A3013 RMK A01 T00600041  RH  087%=      5-min Rain = 0
KAD1 041115Z 00009KT 06/04 A3013 RMK A01 T00600041  RH  087%=      5-min Rain = 0
KAD1 041116Z 36009KT 06/04 A3013 RMK A01 T00600041  RH  088%=      5-min Rain = 0
KAD1 041117Z 36010KT 06/04 A3013 RMK A01 T00600041  RH  087%=      5-min Rain = 0
KAD1 041118Z 36009KT 06/04 A3013 RMK A01 T00600040  RH  087%=      5-min Rain = 0
KAD1 041119Z 36010KT 06/04 A3013 RMK A01 T00600041  RH  087%=      5-min Rain = 0
KAD1 041120Z 35009KT 06/04 A3013 RMK A01 T00600041  RH  087%=      5-min Rain = 0
KAD1 041121Z 35009KT 06/04 A3013 RMK A01 T00600041  RH  087%=      5-min Rain = 0
KAD1 041122Z 36010KT 06/04 A3014 RMK A01 T00610041  RH  088%=      5-min Rain = 0
KAD1 041123Z 35009KT 06/04 A3014 RMK A01 T00600042  RH  088%=      5-min Rain = 0
KAD1 041124Z 35009KT 06/04 A3014 RMK A01 T00600042  RH  088%=      5-min Rain = 0
KAD1 041125Z 34007KT 06/04 A3014 RMK A01 T00600041  RH  088%=      5-min Rain = 0
KAD1 041126Z 34008KT 06/04 A3014 RMK A01 T00600042  RH  088%=      5-min Rain = 0
KAD1 041127Z 34007KT 06/04 A3014 RMK A01 T00600043  RH  088%=      5-min Rain = 0
KAD1 041128Z 34009KT 06/04 A3014 RMK A01 T00600043  RH  089%=      5-min Rain = 0
KAD1 041129Z 34009KT 06/04 A3014 RMK A01 T00600043  RH  089%=      5-min Rain = 0
KAD1 041130Z 34009KT 06/04 A3014 RMK A01 T00600042  RH  089%=      5-min Rain = 0
KAD1 041131Z 34009KT 06/04 A3014 RMK A01 T00600043  RH  089%=      5-min Rain = 0
KAD1 041132Z 34008KT 06/04 A3014 RMK A01 T00600042  RH  088%=      5-min Rain = 0
KAD1 041133Z 35007KT 06/04 A3014 RMK A01 T00600042  RH  089%=      5-min Rain = 0
KAD1 041134Z 34007KT 06/04 A3015 RMK A01 T00600043  RH  089%=      5-min Rain = 0
KAD1 041135Z 33006KT 06/04 A3015 RMK A01 T00600044  RH  089%=      5-min Rain = 0
KAD1 041136Z 33006KT 06/04 A3015 RMK A01 T00600044  RH  090%=      5-min Rain = 0
KAD1 041137Z 34006KT 06/04 A3015 RMK A01 T00600044  RH  090%=      5-min Rain = 0
KAD1 041138Z 34007KT 06/04 A3015 RMK A01 T00600044  RH  089%=      5-min Rain = 0
KAD1 041139Z 34007KT 06/04 A3015 RMK A01 T00590043  RH  089%=      5-min Rain = 0
KAD1 041140Z 34007KT 06/04 A3015 RMK A01 T00590043  RH  089%=      5-min Rain = 0
KAD1 041141Z 33005KT 06/04 A3015 RMK A01 T00600044  RH  089%=      5-min Rain = 0
KAD1 041142Z 33007KT 06/05 A3015 RMK A01 T00600045  RH  090%=      5-min Rain = 0
KAD1 041143Z 32007KT 06/04 A3015 RMK A01 T00600044  RH  090%=      5-min Rain = 0
KAD1 041144Z 32008KT 06/04 A3015 RMK A01 T00600044  RH  090%=      5-min Rain = 0
KAD1 041145Z 33007KT 06/04 A3015 RMK A01 T00600044  RH  090%=      5-min Rain = 0
KAD1 041146Z 33006KT 06/05 A3015 RMK A01 T00590045  RH  090%=      5-min Rain = 0
KAD1 041147Z 33006KT 06/05 A3015 RMK A01 T00590045  RH  091%=      5-min Rain = 0
KAD1 041148Z 33008KT 06/05 A3015 RMK A01 T00590045  RH  091%=      5-min Rain = 0
KAD1 041149Z 34009KT 06/04 A3015 RMK A01 T00590044  RH  090%=      5-min Rain = 0
KAD1 041150Z 34007KT 06/04 A3015 RMK A01 T00590042  RH  089%=      5-min Rain = 0
KAD1 041151Z 34007KT 06/04 A3015 RMK A01 T00590042  RH  089%=      5-min Rain = 0
KAD1 041152Z 34006KT 06/04 A3015 RMK A01 T00600043  RH  089%=      5-min Rain = 0
KAD1 041153Z 33006KT 06/04 A3015 RMK A01 T00600044  RH  090%=      5-min Rain = 0
KAD1 041154Z 35006KT 06/04 A3015 RMK A01 T00590044  RH  090%=      5-min Rain = 0
KAD1 041155Z 34007KT 06/04 A3015 RMK A01 T00590044  RH  090%=      5-min Rain = 0
KAD1 041156Z 33007KT 06/04 A3015 RMK A01 T00590043  RH  090%=      5-min Rain = 0
KAD1 041157Z 34006KT 06/04 A3015 RMK A01 T00590042  RH  089%=      5-min Rain = 0
KAD1 041158Z 34006KT 06/04 A3015 RMK A01 T00590043  RH  089%=      5-min Rain = 0
KAD1 041159Z 33006KT 06/04 A3015 RMK A01 T00590043  RH  089%=      5-min Rain = 0
KAD1 041200Z 35008KT 06/04 A3016 RMK A01 T00590043  RH  089%=      5-min Rain = 0
KAD1 041201Z 35008KT 06/04 A3016 RMK A01 T00590040  RH  088%=      5-min Rain = 0
KAD1 041202Z 35007KT 06/04 A3016 RMK A01 T00600040  RH  087%=      5-min Rain = 0
KAD1 041203Z 35008KT 06/04 A3016 RMK A01 T00590039  RH  087%=      5-min Rain = 0
KAD1 041204Z 35007KT 06/04 A3016 RMK A01 T00590039  RH  087%=      5-min Rain = 0
KAD1 041205Z 34008KT 06/04 A3016 RMK A01 T00600039  RH  087%=      5-min Rain = 0
KAD1 041206Z 34008KT 06/04 A3016 RMK A01 T00600039  RH  087%=      5-min Rain = 0
KAD1 041207Z 34008KT 06/04 A3016 RMK A01 T00600039  RH  086%=      5-min Rain = 0
KAD1 041208Z 35006KT 06/04 A3016 RMK A01 T00600039  RH  086%=      5-min Rain = 0
KAD1 041209Z 35008KT 06/04 A3016 RMK A01 T00600039  RH  086%=      5-min Rain = 0
KAD1 041210Z 34008KT 06/04 A3016 RMK A01 T00600038  RH  086%=      5-min Rain = 0
KAD1 041211Z 35007KT 06/04 A3016 RMK A01 T00590039  RH  087%=      5-min Rain = 0
KAD1 041212Z 35006KT 06/04 A3016 RMK A01 T00600040  RH  087%=      5-min Rain = 0
KAD1 041213Z 00008KT 06/04 A3016 RMK A01 T00600041  RH  087%=      5-min Rain = 0
KAD1 041214Z 36007KT 06/04 A3016 RMK A01 T00600040  RH  087%=      5-min Rain = 0
KAD1 041215Z 35007KT 06/04 A3016 RMK A01 T00590039  RH  087%=      5-min Rain = 0
KAD1 041216Z 36008KT 06/04 A3016 RMK A01 T00600039  RH  086%=      5-min Rain = 0
KAD1 041217Z 35007KT 06/04 A3016 RMK A01 T00590038  RH  086%=      5-min Rain = 0
KAD1 041218Z 35006KT 06/04 A3016 RMK A01 T00600039  RH  086%=      5-min Rain = 0
KAD1 041219Z 35006KT 06/04 A3016 RMK A01 T00600039  RH  087%=      5-min Rain = 0
KAD1 041220Z 35006KT 06/04 A3016 RMK A01 T00600039  RH  087%=      5-min Rain = 0
KAD1 041221Z 35008KT 06/04 A3016 RMK A01 T00600039  RH  086%=      5-min Rain = 0
KAD1 041222Z 36007KT 06/04 A3016 RMK A01 T00600037  RH  086%=      5-min Rain = 0
KAD1 041223Z 35007KT 06/04 A3016 RMK A01 T00600038  RH  086%=      5-min Rain = 0
KAD1 041224Z 36006KT 06/04 A3016 RMK A01 T00600038  RH  086%=      5-min Rain = 0
KAD1 041225Z 36007KT 06/04 A3016 RMK A01 T00600038  RH  086%=      5-min Rain = 0
KAD1 041226Z 35008KT 06/04 A3016 RMK A01 T00600038  RH  086%=      5-min Rain = 0
KAD1 041227Z 36007KT 06/04 A3016 RMK A01 T00600038  RH  086%=      5-min Rain = 0
KAD1 041228Z 36007KT 06/04 A3016 RMK A01 T00600038  RH  086%=      5-min Rain = 0
KAD1 041229Z 36009KT 06/04 A3016 RMK A01 T00600038  RH  086%=      5-min Rain = 0
KAD1 041230Z 00007KT 06/04 A3016 RMK A01 T00600037  RH  085%=      5-min Rain = 0
KAD1 041231Z 01008KT 06/04 A3017 RMK A01 T00600037  RH  085%=      5-min Rain = 0
KAD1 041232Z 02008KT 06/04 A3017 RMK A01 T00600038  RH  085%=      5-min Rain = 0
KAD1 041233Z 00008KT 06/04 A3017 RMK A01 T00610038  RH  085%=      5-min Rain = 0
KAD1 041234Z 01007KT 06/04 A3017 RMK A01 T00610038  RH  086%=      5-min Rain = 0
KAD1 041235Z 01007KT 06/04 A3017 RMK A01 T00600038  RH  085%=      5-min Rain = 0
KAD1 041236Z 01008KT 06/04 A3017 RMK A01 T00600038  RH  086%=      5-min Rain = 0
KAD1 041237Z 01007KT 06/04 A3017 RMK A01 T00610037  RH  085%=      5-min Rain = 0
KAD1 041238Z 01008KT 06/04 A3017 RMK A01 T00610038  RH  085%=      5-min Rain = 0
KAD1 041239Z 01007KT 06/04 A3017 RMK A01 T00610038  RH  085%=      5-min Rain = 0
KAD1 041240Z 01008KT 06/04 A3017 RMK A01 T00610038  RH  085%=      5-min Rain = 0
KAD1 041241Z 01008KT 06/04 A3017 RMK A01 T00610037  RH  085%=      5-min Rain = 0
KAD1 041242Z 01010KT 06/04 A3017 RMK A01 T00610036  RH  084%=      5-min Rain = 0
KAD1 041243Z 02011KT 06/04 A3017 RMK A01 T00620036  RH  084%=      5-min Rain = 0
KAD1 041244Z 01008KT 06/04 A3017 RMK A01 T00620038  RH  084%=      5-min Rain = 0
KAD1 041245Z 01009KT 06/04 A3017 RMK A01 T00620037  RH  084%=      5-min Rain = 0
KAD1 041246Z 01010KT 06/04 A3017 RMK A01 T00620036  RH  084%=      5-min Rain = 0
KAD1 041247Z 02009KT 06/04 A3017 RMK A01 T00620038  RH  085%=      5-min Rain = 0
KAD1 041248Z 02010KT 06/04 A3017 RMK A01 T00620039  RH  085%=      5-min Rain = 0
KAD1 041249Z 02011KT 06/04 A3017 RMK A01 T00630038  RH  084%=      5-min Rain = 0
KAD1 041250Z 02011KT 06/04 A3017 RMK A01 T00620037  RH  084%=      5-min Rain = 0
KAD1 041251Z 01012KT 06/04 A3017 RMK A01 T00630036  RH  083%=      5-min Rain = 0
KAD1 041252Z 02011KT 06/04 A3017 RMK A01 T00630037  RH  083%=      5-min Rain = 0
KAD1 041253Z 01010KT 06/04 A3017 RMK A01 T00630037  RH  083%=      5-min Rain = 0
KAD1 041254Z 01010KT 06/04 A3017 RMK A01 T00630038  RH  084%=      5-min Rain = 0
KAD1 041255Z 01009KT 06/04 A3017 RMK A01 T00630039  RH  084%=      5-min Rain = 0
KAD1 041256Z 01011KT 06/04 A3017 RMK A01 T00630039  RH  084%=      5-min Rain = 0
KAD1 041257Z 01009KT 06/04 A3017 RMK A01 T00630037  RH  083%=      5-min Rain = 0
KAD1 041258Z 01009KT 06/04 A3017 RMK A01 T00630038  RH  084%=      5-min Rain = 0
KAD1 041259Z 01008KT 06/04 A3017 RMK A01 T00630039  RH  085%=      5-min Rain = 0
KAD1 041300Z 01011KT 06/04 A3017 RMK A01 T00640039  RH  084%=      5-min Rain = 0
KAD1 041301Z 01010KT 06/04 A3017 RMK A01 T00640037  RH  083%=      5-min Rain = 0
KAD1 041302Z 02013KT 06/04 A3017 RMK A01 T00640037  RH  083%=      5-min Rain = 0
KAD1 041303Z 01011KT 06/04 A3017 RMK A01 T00640036  RH  082%=      5-min Rain = 0
KAD1 041304Z 02010KT 06/04 A3017 RMK A01 T00640036  RH  082%=      5-min Rain = 0
KAD1 041305Z 02010KT 06/04 A3017 RMK A01 T00640037  RH  083%=      5-min Rain = 0
KAD1 041306Z 02011KT 06/04 A3017 RMK A01 T00640038  RH  084%=      5-min Rain = 0
KAD1 041307Z 02010KT 06/04 A3017 RMK A01 T00640038  RH  083%=      5-min Rain = 0
KAD1 041308Z 03010KT 06/04 A3017 RMK A01 T00640039  RH  084%=      5-min Rain = 0
KAD1 041309Z 02011KT 06/04 A3017 RMK A01 T00640039  RH  084%=      5-min Rain = 0
KAD1 041310Z 03010KT 06/04 A3017 RMK A01 T00640038  RH  083%=      5-min Rain = 0
KAD1 041311Z 02011KT 06/04 A3017 RMK A01 T00640038  RH  083%=      5-min Rain = 0
KAD1 041312Z 01011KT 07/04 A3017 RMK A01 T00650038  RH  083%=      5-min Rain = 0
KAD1 041313Z 02011KT 07/04 A3018 RMK A01 T00660039  RH  083%=      5-min Rain = 0
KAD1 041314Z 01010KT 07/04 A3018 RMK A01 T00670039  RH  082%=      5-min Rain = 0
KAD1 041315Z 01011KT 07/04 A3018 RMK A01 T00690040  RH  082%=      5-min Rain = 0
KAD1 041316Z 01010KT 07/04 A3018 RMK A01 T00700040  RH  081%=      5-min Rain = 0
KAD1 041317Z 01010KT 07/04 A3018 RMK A01 T00700041  RH  082%=      5-min Rain = 0
KAD1 041318Z 02011KT 07/04 A3018 RMK A01 T00710041  RH  081%=      5-min Rain = 0
KAD1 041319Z 01011KT 07/04 A3018 RMK A01 T00720040  RH  080%=      5-min Rain = 0
KAD1 041320Z 01012KT 07/04 A3018 RMK A01 T00710039  RH  080%=      5-min Rain = 0
KAD1 041321Z 01011KT 07/04 A3018 RMK A01 T00710038  RH  079%=      5-min Rain = 0
KAD1 041322Z 01013KT 07/04 A3018 RMK A01 T00720038  RH  079%=      5-min Rain = 0
KAD1 041323Z 01013KT 07/04 A3018 RMK A01 T00720036  RH  078%=      5-min Rain = 0
KAD1 041324Z 02011KT 07/04 A3018 RMK A01 T00720038  RH  079%=      5-min Rain = 0
KAD1 041325Z 02013KT 07/04 A3018 RMK A01 T00720038  RH  079%=      5-min Rain = 0
KAD1 041326Z 02011KT 07/04 A3018 RMK A01 T00730039  RH  079%=      5-min Rain = 0
KAD1 041327Z 02013KT 07/04 A3018 RMK A01 T00740040  RH  079%=      5-min Rain = 0
KAD1 041328Z 01012KT 07/04 A3018 RMK A01 T00740039  RH  078%=      5-min Rain = 0
KAD1 041329Z 02013KT 07/04 A3018 RMK A01 T00740040  RH  079%=      5-min Rain = 0
KAD1 041330Z 02013KT 08/04 A3018 RMK A01 T00750039  RH  078%=      5-min Rain = 0
KAD1 041331Z 01012KT 08/04 A3018 RMK A01 T00760041  RH  079%=      5-min Rain = 0
KAD1 041332Z 02015KT 08/04 A3018 RMK A01 T00760040  RH  078%=      5-min Rain = 0
KAD1 041333Z 01012KT 08/04 A3018 RMK A01 T00760036  RH  076%=      5-min Rain = 0
KAD1 041334Z 01013KT 08/04 A3018 RMK A01 T00760039  RH  077%=      5-min Rain = 0
KAD1 041335Z 01015KT 08/04 A3018 RMK A01 T00760039  RH  077%=      5-min Rain = 0
KAD1 041336Z 01014KT 08/04 A3019 RMK A01 T00760037  RH  076%=      5-min Rain = 0
KAD1 041337Z 01014KT 08/04 A3019 RMK A01 T00770036  RH  076%=      5-min Rain = 0
KAD1 041338Z 01016KT 08/04 A3019 RMK A01 T00770036  RH  076%=      5-min Rain = 0
KAD1 041339Z 01016KT 08/03 A3019 RMK A01 T00760034  RH  075%=      5-min Rain = 0
KAD1 041340Z 01014KT 08/04 A3019 RMK A01 T00760036  RH  076%=      5-min Rain = 0
KAD1 041341Z 01012KT 08/04 A3019 RMK A01 T00760038  RH  076%=      5-min Rain = 0
KAD1 041342Z 01013KT 08/04 A3019 RMK A01 T00770038  RH  076%=      5-min Rain = 0
KAD1 041343Z 01014KT 08/04 A3019 RMK A01 T00780036  RH  075%=      5-min Rain = 0
KAD1 041344Z 02014KT 08/04 A3019 RMK A01 T00780036  RH  075%=      5-min Rain = 0
KAD1 041345Z 02013KT 08/04 A3019 RMK A01 T00780035  RH  074%=      5-min Rain = 0
KAD1 041346Z 01012KT 08/04 A3019 RMK A01 T00780037  RH  075%=      5-min Rain = 0
KAD1 041347Z 01011KT 08/04 A3019 RMK A01 T00790038  RH  075%=      5-min Rain = 0
KAD1 041348Z 01013KT 08/04 A3019 RMK A01 T00790037  RH  074%=      5-min Rain = 0
KAD1 041349Z 01016KT 08/03 A3019 RMK A01 T00790034  RH  073%=      5-min Rain = 0
KAD1 041350Z 02015KT 08/03 A3019 RMK A01 T00790033  RH  073%=      5-min Rain = 0
KAD1 041351Z 01012KT 08/04 A3019 RMK A01 T00790035  RH  074%=      5-min Rain = 0
KAD1 041352Z 02017KT 08/04 A3019 RMK A01 T00810036  RH  073%=      5-min Rain = 0
KAD1 041353Z 02015KT 08/04 A3019 RMK A01 T00800035  RH  073%=      5-min Rain = 0
KAD1 041354Z 02015KT 08/03 A3019 RMK A01 T00800034  RH  073%=      5-min Rain = 0
KAD1 041355Z 01013KT 08/03 A302 RMK A01 T00810034  RH  072%=      5-min Rain = 0
KAD1 041356Z 02015KT 08/04 A302 RMK A01 T00810035  RH  073%=      5-min Rain = 0
KAD1 041357Z 02015KT 08/03 A302 RMK A01 T00810034  RH  072%=      5-min Rain = 0
KAD1 041358Z 02013KT 08/03 A302 RMK A01 T00810034  RH  072%=      5-min Rain = 0
KAD1 041359Z 01013KT 08/04 A302 RMK A01 T00810035  RH  073%=      5-min Rain = 0
KAD1 041400Z 02014KT 08/04 A302 RMK A01 T00820035  RH  072%=      5-min Rain = 0
KAD1 041401Z 01012KT 08/04 A302 RMK A01 T00820035  RH  072%=      5-min Rain = 0
KAD1 041402Z 02011KT 08/04 A302 RMK A01 T00830038  RH  073%=      5-min Rain = 0
KAD1 041403Z 02012KT 09/04 A302 RMK A01 T00850040  RH  073%=      5-min Rain = 0
KAD1 041404Z 02013KT 09/04 A302 RMK A01 T00860042  RH  074%=      5-min Rain = 0
KAD1 041405Z 01015KT 09/04 A302 RMK A01 T00880039  RH  071%=      5-min Rain = 0
KAD1 041406Z 01016KT 09/03 A302 RMK A01 T00850033  RH  070%=      5-min Rain = 0
KAD1 041407Z 01014KT 08/04 A302 RMK A01 T00840036  RH  071%=      5-min Rain = 0
KAD1 041408Z 01013KT 09/04 A3021 RMK A01 T00860039  RH  072%=      5-min Rain = 0
KAD1 041409Z 02014KT 09/04 A3021 RMK A01 T00860037  RH  071%=      5-min Rain = 0
KAD1 041410Z 02014KT 09/04 A3021 RMK A01 T00860037  RH  072%=      5-min Rain = 0
KAD1 041411Z 02013KT 09/04 A3021 RMK A01 T00850037  RH  072%=      5-min Rain = 0
KAD1 041412Z 03012KT 08/04 A3021 RMK A01 T00840035  RH  071%=      5-min Rain = 0
KAD1 041413Z 02012KT 08/04 A3021 RMK A01 T00830036  RH  073%=      5-min Rain = 0
KAD1 041414Z 01012KT 08/04 A3021 RMK A01 T00830035  RH  072%=      5-min Rain = 0
KAD1 041415Z 01014KT 08/04 A3021 RMK A01 T00830035  RH  072%=      5-min Rain = 0
KAD1 041416Z 01014KT 08/04 A3021 RMK A01 T00830035  RH  072%=      5-min Rain = 0
KAD1 041417Z 01014KT 08/03 A3021 RMK A01 T00830032  RH  070%=      5-min Rain = 0
KAD1 041418Z 02014KT 08/03 A3021 RMK A01 T00830034  RH  071%=      5-min Rain = 0
KAD1 041419Z 01013KT 08/04 A3021 RMK A01 T00840035  RH  071%=      5-min Rain = 0
KAD1 041420Z 01012KT 09/04 A3021 RMK A01 T00850035  RH  071%=      5-min Rain = 0
KAD1 041421Z 01013KT 09/04 A3021 RMK A01 T00850035  RH  071%=      5-min Rain = 0
KAD1 041422Z 02014KT 09/03 A3021 RMK A01 T00850033  RH  070%=      5-min Rain = 0
KAD1 041423Z 02012KT 09/03 A3021 RMK A01 T00850034  RH  070%=      5-min Rain = 0
KAD1 041424Z 03012KT 09/04 A3021 RMK A01 T00850036  RH  071%=      5-min Rain = 0
KAD1 041425Z 03012KT 09/04 A3021 RMK A01 T00850035  RH  071%=      5-min Rain = 0
KAD1 041426Z 03012KT 09/03 A3021 RMK A01 T00870034  RH  069%=      5-min Rain = 0
KAD1 041427Z 03012KT 09/03 A3021 RMK A01 T00860030  RH  068%=      5-min Rain = 0
KAD1 041428Z 02011KT 09/03 A3021 RMK A01 T00860033  RH  069%=      5-min Rain = 0
KAD1 041429Z 02010KT 09/03 A3021 RMK A01 T00870034  RH  069%=      5-min Rain = 0
KAD1 041430Z 03010KT 09/04 A3021 RMK A01 T00890037  RH  070%=      5-min Rain = 0
KAD1 041431Z 02010KT 09/04 A3021 RMK A01 T00920040  RH  070%=      5-min Rain = 0
KAD1 041432Z 03012KT 09/04 A3021 RMK A01 T00930037  RH  068%=      5-min Rain = 0
KAD1 041433Z 02012KT 09/04 A3021 RMK A01 T00920037  RH  068%=      5-min Rain = 0
KAD1 041434Z 03010KT 09/03 A3021 RMK A01 T00910034  RH  067%=      5-min Rain = 0
KAD1 041435Z 02011KT 09/03 A3022 RMK A01 T00900033  RH  067%=      5-min Rain = 0
KAD1 041436Z 02011KT 09/03 A3021 RMK A01 T00900031  RH  067%=      5-min Rain = 0
KAD1 041437Z 01012KT 09/03 A3021 RMK A01 T00900034  RH  068%=      5-min Rain = 0
KAD1 041438Z 02012KT 09/03 A3021 RMK A01 T00900031  RH  067%=      5-min Rain = 0
KAD1 041439Z 02012KT 09/03 A3021 RMK A01 T00900034  RH  068%=      5-min Rain = 0
KAD1 041440Z 03011KT 09/03 A3021 RMK A01 T00900034  RH  068%=      5-min Rain = 0
KAD1 041441Z 03013G18KT 09/03 A3021 RMK A01 T00900032  RH  067%=      5-min Rain = 0
KAD1 041442Z 03013KT 09/04 A3021 RMK A01 T00910035  RH  068%=      5-min Rain = 0
KAD1 041443Z 03014KT 09/03 A3021 RMK A01 T00920030  RH  066%=      5-min Rain = 0
KAD1 041444Z 03014KT 09/03 A3021 RMK A01 T00920028  RH  065%=      5-min Rain = 0
KAD1 041445Z 03012KT 09/03 A3021 RMK A01 T00910028  RH  064%=      5-min Rain = 0
KAD1 041446Z 03010KT 09/03 A3021 RMK A01 T00890026  RH  064%=      5-min Rain = 0
KAD1 041447Z 02013KT 09/03 A3021 RMK A01 T00890030  RH  066%=      5-min Rain = 0
KAD1 041448Z 03013KT 09/03 A3021 RMK A01 T00910031  RH  066%=      5-min Rain = 0
KAD1 041449Z 03012KT 09/03 A3021 RMK A01 T00910028  RH  065%=      5-min Rain = 0
KAD1 041450Z 03012KT 09/03 A3021 RMK A01 T00900028  RH  065%=      5-min Rain = 0
KAD1 041451Z 03010KT 09/03 A3021 RMK A01 T00900029  RH  066%=      5-min Rain = 0
KAD1 041452Z 04011KT 09/03 A3021 RMK A01 T00900031  RH  066%=      5-min Rain = 0
KAD1 041453Z 03010KT 09/03 A3021 RMK A01 T00920030  RH  065%=      5-min Rain = 0
KAD1 041454Z 04011KT 09/03 A3021 RMK A01 T00920030  RH  065%=      5-min Rain = 0
KAD1 041455Z 04011KT 09/03 A3021 RMK A01 T00920033  RH  066%=      5-min Rain = 0
KAD1 041456Z 05012KT 09/03 A3021 RMK A01 T00930030  RH  065%=      5-min Rain = 0
KAD1 041457Z 04013KT 09/03 A3021 RMK A01 T00920029  RH  065%=      5-min Rain = 0
KAD1 041458Z 04012KT 09/03 A3021 RMK A01 T00910030  RH  066%=      5-min Rain = 0
KAD1 041459Z 05010KT 09/03 A3021 RMK A01 T00910029  RH  065%=      5-min Rain = 0
KAD1 041500Z 04008KT 09/03 A3021 RMK A01 T00900031  RH  066%=      5-min Rain = 0
KAD1 041501Z 04011KT 09/04 A3021 RMK A01 T00930037  RH  068%=      5-min Rain = 0
KAD1 041502Z 04011KT 09/04 A3021 RMK A01 T00930035  RH  067%=      5-min Rain = 0
KAD1 041503Z 04009KT 09/03 A3021 RMK A01 T00940032  RH  065%=      5-min Rain = 0
KAD1 041504Z 02010KT 09/03 A3021 RMK A01 T00930029  RH  064%=      5-min Rain = 0
KAD1 041505Z 04012KT 09/03 A3021 RMK A01 T00940034  RH  066%=      5-min Rain = 0
KAD1 041506Z 03013KT 10/03 A3021 RMK A01 T00960031  RH  064%=      5-min Rain = 0
KAD1 041507Z 04012KT 10/03 A3021 RMK A01 T00960031  RH  064%=      5-min Rain = 0
KAD1 041508Z 03011KT 10/03 A3021 RMK A01 T00960026  RH  062%=      5-min Rain = 0
KAD1 041509Z 04009KT 09/03 A3021 RMK A01 T00940027  RH  063%=      5-min Rain = 0
KAD1 041510Z 06010KT 10/03 A3021 RMK A01 T00950031  RH  065%=      5-min Rain = 0
KAD1 041511Z 05012KT 10/03 A3021 RMK A01 T00960033  RH  065%=      5-min Rain = 0
KAD1 041512Z 04010KT 10/03 A3021 RMK A01 T00960026  RH  062%=      5-min Rain = 0
KAD1 041513Z 03009KT 10/03 A3021 RMK A01 T00950026  RH  062%=      5-min Rain = 0
KAD1 041514Z 04011KT 09/03 A3021 RMK A01 T00940026  RH  062%=      5-min Rain = 0
KAD1 041515Z 04011KT 09/03 A3021 RMK A01 T00940025  RH  062%=      5-min Rain = 0
KAD1 041516Z 04012KT 10/03 A3021 RMK A01 T00980032  RH  064%=      5-min Rain = 0
KAD1 041517Z 04011KT 10/02 A3021 RMK A01 T00990019  RH  058%=      5-min Rain = 0
KAD1 041518Z 03010KT 10/03 A3021 RMK A01 T00980025  RH  061%=      5-min Rain = 0
KAD1 041519Z 05010KT 10/03 A3021 RMK A01 T00970028  RH  062%=      5-min Rain = 0
KAD1 041520Z 03009G14KT 10/03 A3021 RMK A01 T00970032  RH  064%=      5-min Rain = 0
KAD1 041521Z 03011KT 10/03 A3021 RMK A01 T00980028  RH  062%=      5-min Rain = 0
KAD1 041522Z 05008KT 10/03 A3021 RMK A01 T00970029  RH  062%=      5-min Rain = 0
KAD1 041523Z 05010KT 10/03 A3021 RMK A01 T01000033  RH  063%=      5-min Rain = 0
KAD1 041524Z 04010KT 10/03 A3021 RMK A01 T01000029  RH  061%=      5-min Rain = 0
KAD1 041525Z 04007KT 10/03 A3021 RMK A01 T00990028  RH  061%=      5-min Rain = 0
KAD1 041526Z 06006KT 10/03 A3021 RMK A01 T00970027  RH  062%=      5-min Rain = 0
KAD1 041527Z 05009G14KT 10/03 A3021 RMK A01 T00970027  RH  061%=      5-min Rain = 0
KAD1 041528Z 06011KT 10/03 A3021 RMK A01 T00980031  RH  063%=      5-min Rain = 0
KAD1 041529Z 06011KT 10/03 A3021 RMK A01 T00980028  RH  061%=      5-min Rain = 0
KAD1 041530Z 06010KT 10/03 A3021 RMK A01 T00970025  RH  061%=      5-min Rain = 0
KAD1 041531Z 07008KT 10/02 A3021 RMK A01 T00960024  RH  061%=      5-min Rain = 0
KAD1 041532Z 05008KT 10/03 A3021 RMK A01 T00950031  RH  064%=      5-min Rain = 0
KAD1 041533Z 05009KT 10/03 A3021 RMK A01 T00970027  RH  062%=      5-min Rain = 0
KAD1 041534Z 06009KT 10/03 A3021 RMK A01 T00970027  RH  062%=      5-min Rain = 0
KAD1 041535Z 05009KT 10/03 A3021 RMK A01 T00970025  RH  061%=      5-min Rain = 0
KAD1 041536Z 04009KT 10/02 A3021 RMK A01 T00970023  RH  060%=      5-min Rain = 0
KAD1 041537Z 04009KT 10/02 A3021 RMK A01 T00980019  RH  058%=      5-min Rain = 0
KAD1 041538Z 03007KT 10/02 A3021 RMK A01 T00980015  RH  056%=      5-min Rain = 0
KAD1 041539Z 03009KT 10/02 A3021 RMK A01 T00970019  RH  058%=      5-min Rain = 0
KAD1 041540Z 04008KT 10/02 A3021 RMK A01 T00980020  RH  058%=      5-min Rain = 0
KAD1 041541Z 03007KT 10/02 A3021 RMK A01 T00970020  RH  059%=      5-min Rain = 0
KAD1 041542Z 06006KT 10/03 A3021 RMK A01 T00970026  RH  061%=      5-min Rain = 0
KAD1 041543Z 06006KT 10/03 A3021 RMK A01 T00980031  RH  063%=      5-min Rain = 0
KAD1 041544Z 06004KT 10/03 A3021 RMK A01 T01000032  RH  063%=      5-min Rain = 0
KAD1 041545Z 02004KT 10/03 A3021 RMK A01 T01010031  RH  062%=      5-min Rain = 0
KAD1 041546Z 04008KT 10/03 A3021 RMK A01 T01020028  RH  060%=      5-min Rain = 0
KAD1 041547Z 04008KT 10/02 A302 RMK A01 T01020022  RH  058%=      5-min Rain = 0
KAD1 041548Z 05009KT 10/02 A302 RMK A01 T01010020  RH  057%=      5-min Rain = 0
KAD1 041549Z 05010KT 10/03 A302 RMK A01 T01010029  RH  061%=      5-min Rain = 0
KAD1 041550Z 06010KT 10/03 A302 RMK A01 T01030031  RH  061%=      5-min Rain = 0
KAD1 041551Z 05009KT 10/03 A302 RMK A01 T01020025  RH  059%=      5-min Rain = 0
KAD1 041552Z 03007KT 10/02 A302 RMK A01 T00990023  RH  059%=      5-min Rain = 0
KAD1 041553Z 02005KT 10/02 A302 RMK A01 T00980019  RH  058%=      5-min Rain = 0
KAD1 041554Z 04006KT 10/02 A302 RMK A01 T00970019  RH  058%=      5-min Rain = 0
KAD1 041555Z 07006KT 10/02 A302 RMK A01 T00970024  RH  060%=      5-min Rain = 0
KAD1 041556Z 07008KT 10/03 A302 RMK A01 T01000028  RH  061%=      5-min Rain = 0
KAD1 041557Z 07008KT 10/03 A302 RMK A01 T01030032  RH  062%=      5-min Rain = 0
KAD1 041558Z 08009KT 10/03 A302 RMK A01 T01030027  RH  059%=      5-min Rain = 0
KAD1 041559Z 08009KT 10/02 A302 RMK A01 T01020020  RH  057%=      5-min Rain = 0
KAD1 041600Z 05010KT 10/02 A302 RMK A01 T01010021  RH  058%=      5-min Rain = 0
KAD1 041601Z 05008KT 10/02 A302 RMK A01 T01010015  RH  055%=      5-min Rain = 0
KAD1 041602Z 04008KT 10/02 A302 RMK A01 T01020023  RH  058%=      5-min Rain = 0
KAD1 041603Z 04006KT 10/02 A302 RMK A01 T01040017  RH  055%=      5-min Rain = 0
KAD1 041604Z 05007KT 10/02 A302 RMK A01 T01030019  RH  056%=      5-min Rain = 0
KAD1 041605Z 04011KT 11/02 A302 RMK A01 T01050018  RH  055%=      5-min Rain = 0
KAD1 041606Z 04009KT 11/01 A302 RMK A01 T01050009  RH  051%=      5-min Rain = 0
KAD1 041607Z 05009KT 11/01 A302 RMK A01 T01060014  RH  053%=      5-min Rain = 0
KAD1 041608Z 05009KT 11/02 A302 RMK A01 T01070015  RH  053%=      5-min Rain = 0
KAD1 041609Z 05008KT 11/02 A302 RMK A01 T01060018  RH  054%=      5-min Rain = 0
KAD1 041610Z 05008KT 10/02 A302 RMK A01 T01040019  RH  056%=      5-min Rain = 0
KAD1 041611Z 05005KT 10/02 A302 RMK A01 T01040017  RH  055%=      5-min Rain = 0
KAD1 041612Z 05004KT 10/01 A302 RMK A01 T01020012  RH  054%=      5-min Rain = 0
KAD1 041613Z 03006G11KT 10/02 A302 RMK A01 T01020020  RH  057%=      5-min Rain = 0
KAD1 041614Z 02011KT 11/03 A302 RMK A01 T01050029  RH  059%=      5-min Rain = 0
KAD1 041615Z 02008KT 11/03 A302 RMK A01 T01060027  RH  058%=      5-min Rain = 0
KAD1 041616Z 03006KT 11/03 A302 RMK A01 T01050026  RH  058%=      5-min Rain = 0
KAD1 041617Z 02005KT 10/02 A302 RMK A01 T01040021  RH  056%=      5-min Rain = 0
KAD1 041618Z 03004KT 10/02 A302 RMK A01 T01020021  RH  057%=      5-min Rain = 0
KAD1 041619Z 05006KT 10/03 A302 RMK A01 T01020026  RH  059%=      5-min Rain = 0
KAD1 041620Z 06010KT 11/03 A302 RMK A01 T01050031  RH  060%=      5-min Rain = 0
KAD1 041621Z 05008KT 11/03 A302 RMK A01 T01090031  RH  059%=      5-min Rain = 0
KAD1 041622Z 06008KT 11/03 A302 RMK A01 T01090025  RH  056%=      5-min Rain = 0
KAD1 041623Z 06007KT 11/03 A302 RMK A01 T01100031  RH  058%=      5-min Rain = 0
KAD1 041624Z 06006KT 11/02 A302 RMK A01 T01100023  RH  055%=      5-min Rain = 0
KAD1 041625Z 06011KT 11/03 A302 RMK A01 T01090029  RH  058%=      5-min Rain = 0
KAD1 041626Z 05010KT 11/03 A302 RMK A01 T01110032  RH  058%=      5-min Rain = 0
KAD1 041627Z 05007KT 11/03 A302 RMK A01 T01130032  RH  057%=      5-min Rain = 0
KAD1 041628Z 06005KT 11/03 A302 RMK A01 T01120025  RH  055%=      5-min Rain = 0
KAD1 041629Z 07005KT 11/02 A302 RMK A01 T01090022  RH  055%=      5-min Rain = 0
KAD1 041630Z 04006KT 11/02 A302 RMK A01 T01080022  RH  055%=      5-min Rain = 0
KAD1 041631Z 06008KT 11/02 A302 RMK A01 T01080023  RH  056%=      5-min Rain = 0
KAD1 041632Z 07009KT 11/02 A302 RMK A01 T01090024  RH  056%=      5-min Rain = 0
KAD1 041633Z 07008KT 11/03 A302 RMK A01 T01080026  RH  057%=      5-min Rain = 0
KAD1 041634Z 08008KT 11/02 A302 RMK A01 T01090023  RH  055%=      5-min Rain = 0
KAD1 041635Z 06007KT 11/03 A3021 RMK A01 T01090025  RH  056%=      5-min Rain = 0
KAD1 041636Z 06007KT 11/03 A3021 RMK A01 T01100025  RH  056%=      5-min Rain = 0
KAD1 041637Z 04005KT 11/02 A3021 RMK A01 T01100023  RH  055%=      5-min Rain = 0
KAD1 041638Z 04004KT 11/02 A3021 RMK A01 T01100020  RH  054%=      5-min Rain = 0
KAD1 041639Z 05006KT 11/02 A302 RMK A01 T01100021  RH  054%=      5-min Rain = 0
KAD1 041640Z 05005KT 11/02 A302 RMK A01 T01090020  RH  054%=      5-min Rain = 0
KAD1 041641Z 07006KT 11/04 A302 RMK A01 T01120035  RH  059%=      5-min Rain = 0
KAD1 041642Z 05009KT 11/03 A302 RMK A01 T01140028  RH  055%=      5-min Rain = 0
KAD1 041643Z 02007KT 11/03 A302 RMK A01 T01140027  RH  055%=      5-min Rain = 0
KAD1 041644Z 02009KT 12/04 A302 RMK A01 T01170035  RH  057%=      5-min Rain = 0
KAD1 041645Z 01008KT 12/02 A302 RMK A01 T01170023  RH  053%=      5-min Rain = 0
KAD1 041646Z 04008KT 11/02 A302 RMK A01 T01140024  RH  054%=      5-min Rain = 0
KAD1 041647Z 04007KT 11/02 A302 RMK A01 T01140019  RH  052%=      5-min Rain = 0
KAD1 041648Z 04007KT 11/02 A302 RMK A01 T01130022  RH  054%=      5-min Rain = 0
KAD1 041649Z 05007KT 11/02 A302 RMK A01 T01130018  RH  052%=      5-min Rain = 0
KAD1 041650Z 02006KT 11/02 A302 RMK A01 T01120017  RH  052%=      5-min Rain = 0
KAD1 041651Z 35005KT 11/01 A302 RMK A01 T01100010  RH  050%=      5-min Rain = 0
KAD1 041652Z 34003KT 11/01 A302 RMK A01 T01080010  RH  051%=      5-min Rain = 0
KAD1 041653Z 03002KT 11/01 A302 RMK A01 T01060009  RH  051%=      5-min Rain = 0
KAD1 041654Z 05003KT 11/02 A302 RMK A01 T01070016  RH  053%=      5-min Rain = 0
KAD1 041655Z 03003KT 11/02 A302 RMK A01 T01100021  RH  054%=      5-min Rain = 0
KAD1 041656Z 04004KT 11/02 A302 RMK A01 T01130024  RH  054%=      5-min Rain = 0
KAD1 041657Z 00004KT 12/02 A302 RMK A01 T01150024  RH  053%=      5-min Rain = 0
KAD1 041658Z 04008KT 12/03 A302 RMK A01 T01170031  RH  056%=      5-min Rain = 0
KAD1 041659Z 07007KT 12/03 A302 RMK A01 T01180026  RH  053%=      5-min Rain = 0
KAD1 041700Z 05006KT 12/02 A302 RMK A01 T01160022  RH  053%=      5-min Rain = 0
KAD1 041701Z 05006KT 12/02 A302 RMK A01 T01150023  RH  053%=      5-min Rain = 0
KAD1 041702Z 04007KT 12/03 A302 RMK A01 T01150025  RH  054%=      5-min Rain = 0
KAD1 041703Z 02008KT 12/03 A302 RMK A01 T01170027  RH  054%=      5-min Rain = 0
KAD1 041704Z 02010KT 12/03 A302 RMK A01 T01190027  RH  053%=      5-min Rain = 0
KAD1 041705Z 01008KT 12/02 A302 RMK A01 T01180019  RH  051%=      5-min Rain = 0
KAD1 041706Z 35005KT 11/02 A302 RMK A01 T01140015  RH  051%=      5-min Rain = 0
KAD1 041707Z 35008KT 11/02 A302 RMK A01 T01120017  RH  052%=      5-min Rain = 0
KAD1 041708Z 35007KT 11/02 A302 RMK A01 T01120022  RH  054%=      5-min Rain = 0
KAD1 041709Z 34009KT 11/02 A302 RMK A01 T01130019  RH  052%=      5-min Rain = 0
KAD1 041710Z 00007KT 11/02 A302 RMK A01 T01130018  RH  052%=      5-min Rain = 0
KAD1 041711Z 00004KT 11/02 A302 RMK A01 T01130019  RH  052%=      5-min Rain = 0
KAD1 041712Z 04003KT 11/01 A302 RMK A01 T01140013  RH  050%=      5-min Rain = 0
KAD1 041713Z 15001KT 11/01 A302 RMK A01 T01130009  RH  049%=      5-min Rain = 0
KAD1 041714Z 25001KT 11/01 A302 RMK A01 T01130009  RH  049%=      5-min Rain = 0
KAD1 041715Z 32001KT 12/02 A302 RMK A01 T01150018  RH  051%=      5-min Rain = 0
KAD1 041716Z 01003KT 12/02 A302 RMK A01 T01180023  RH  052%=      5-min Rain = 0
KAD1 041717Z 06003KT 12/02 A302 RMK A01 T01190024  RH  052%=      5-min Rain = 0
KAD1 041718Z 05008KT 12/04 A302 RMK A01 T01220035  RH  055%=      5-min Rain = 0
KAD1 041719Z 05007KT 12/03 A302 RMK A01 T01230029  RH  053%=      5-min Rain = 0
KAD1 041720Z 04004KT 12/02 A302 RMK A01 T01200019  RH  050%=      5-min Rain = 0
KAD1 041721Z 06002KT 12/02 A302 RMK A01 T01170018  RH  051%=      5-min Rain = 0
KAD1 041722Z 05002G7KT 12/02 A302 RMK A01 T01170020  RH  051%=      5-min Rain = 0
KAD1 041723Z 03007KT 12/02 A302 RMK A01 T01170020  RH  051%=      5-min Rain = 0
KAD1 041724Z 03009KT 12/02 A302 RMK A01 T01180024  RH  053%=      5-min Rain = 0
KAD1 041725Z 02008KT 12/02 A3021 RMK A01 T01190021  RH  051%=      5-min Rain = 0
KAD1 041726Z 03008KT 12/02 A302 RMK A01 T01180024  RH  052%=      5-min Rain = 0
KAD1 041727Z 01005KT 12/02 A3021 RMK A01 T01180020  RH  051%=      5-min Rain = 0
KAD1 041728Z 02008KT 12/02 A3021 RMK A01 T01170019  RH  051%=      5-min Rain = 0
KAD1 041729Z 01006KT 12/02 A3021 RMK A01 T01150016  RH  050%=      5-min Rain = 0
KAD1 041730Z 03004KT 11/02 A3021 RMK A01 T01140017  RH  051%=      5-min Rain = 0
KAD1 041731Z 01003KT 11/02 A3021 RMK A01 T01140019  RH  052%=      5-min Rain = 0
KAD1 041732Z 07005KT 12/02 A302 RMK A01 T01160023  RH  053%=      5-min Rain = 0
KAD1 041733Z 10006KT 12/03 A302 RMK A01 T01190030  RH  055%=      5-min Rain = 0
KAD1 041734Z 07004KT 12/02 A302 RMK A01 T01200019  RH  050%=      5-min Rain = 0
KAD1 041735Z 13004KT 12/02 A302 RMK A01 T01170021  RH  051%=      5-min Rain = 0
KAD1 041736Z 12007KT 12/02 A302 RMK A01 T01180022  RH  052%=      5-min Rain = 0
KAD1 041737Z 11006KT 12/03 A302 RMK A01 T01200034  RH  056%=      5-min Rain = 0
KAD1 041738Z 09006KT 12/03 A302 RMK A01 T01220026  RH  052%=      5-min Rain = 0
KAD1 041739Z 08003KT 12/03 A302 RMK A01 T01210026  RH  052%=      5-min Rain = 0
KAD1 041740Z 01004KT 12/03 A302 RMK A01 T01220026  RH  052%=      5-min Rain = 0
KAD1 041741Z 35006KT 12/03 A302 RMK A01 T01230025  RH  051%=      5-min Rain = 0
KAD1 041742Z 36006KT 12/03 A302 RMK A01 T01240028  RH  052%=      5-min Rain = 0
KAD1 041743Z 03006KT 13/03 A302 RMK A01 T01250027  RH  051%=      5-min Rain = 0
KAD1 041744Z 03006KT 13/04 A302 RMK A01 T01270038  RH  055%=      5-min Rain = 0
KAD1 041745Z 04006KT 13/03 A302 RMK A01 T01310032  RH  051%=      5-min Rain = 0
KAD1 041746Z 07006KT 13/03 A302 RMK A01 T01300027  RH  050%=      5-min Rain = 0
KAD1 041747Z 03007KT 13/02 A302 RMK A01 T01270024  RH  050%=      5-min Rain = 0
KAD1 041748Z 35007KT 13/03 A302 RMK A01 T01270026  RH  050%=      5-min Rain = 0
KAD1 041749Z 02003KT 13/02 A302 RMK A01 T01260024  RH  050%=      5-min Rain = 0
KAD1 041750Z 03004G10KT 13/02 A302 RMK A01 T01250019  RH  048%=      5-min Rain = 0
KAD1 041751Z 35008KT 13/02 A302 RMK A01 T01250022  RH  050%=      5-min Rain = 0
KAD1 041752Z 34007KT 12/02 A302 RMK A01 T01240023  RH  050%=      5-min Rain = 0
KAD1 041753Z 35007KT 12/02 A302 RMK A01 T01230020  RH  049%=      5-min Rain = 0
KAD1 041754Z 34007KT 12/03 A302 RMK A01 T01240028  RH  052%=      5-min Rain = 0
KAD1 041755Z 35007KT 13/03 A302 RMK A01 T01270028  RH  051%=      5-min Rain = 0
KAD1 041756Z 02007KT 13/03 A302 RMK A01 T01260028  RH  051%=      5-min Rain = 0
KAD1 041757Z 03004KT 13/02 A302 RMK A01 T01250016  RH  047%=      5-min Rain = 0
KAD1 041758Z 07002KT 12/01 A302 RMK A01 T01220014  RH  048%=      5-min Rain = 0
KAD1 041759Z 01002KT 12/02 A302 RMK A01 T01220020  RH  050%=      5-min Rain = 0
KAD1 041800Z 01005KT 12/03 A302 RMK A01 T01240027  RH  051%=      5-min Rain = 0
KAD1 041801Z 03006KT 13/02 A3019 RMK A01 T01270024  RH  050%=      5-min Rain = 0
KAD1 041802Z 02004KT 13/02 A3019 RMK A01 T01270019  RH  048%=      5-min Rain = 0
KAD1 041803Z 01004KT 13/02 A3019 RMK A01 T01260017  RH  047%=      5-min Rain = 0
KAD1 041804Z 05004KT 13/02 A3019 RMK A01 T01250018  RH  048%=      5-min Rain = 0
KAD1 041805Z 05005KT 12/02 A3019 RMK A01 T01240016  RH  048%=      5-min Rain = 0
KAD1 041806Z 05004KT 12/02 A3019 RMK A01 T01220015  RH  048%=      5-min Rain = 0
KAD1 041807Z 03003KT 12/02 A302 RMK A01 T01220016  RH  048%=      5-min Rain = 0
KAD1 041808Z 01005KT 12/02 A302 RMK A01 T01230022  RH  050%=      5-min Rain = 0
KAD1 041809Z 02004KT 13/03 A302 RMK A01 T01250028  RH  052%=      5-min Rain = 0
KAD1 041810Z 04006KT 13/02 A3019 RMK A01 T01270023  RH  049%=      5-min Rain = 0
KAD1 041811Z 05007KT 13/03 A3019 RMK A01 T01290028  RH  050%=      5-min Rain = 0
KAD1 041812Z 03007KT 13/02 A3019 RMK A01 T01280023  RH  049%=      5-min Rain = 0
KAD1 041813Z 05005KT 13/02 A3019 RMK A01 T01270022  RH  049%=      5-min Rain = 0
KAD1 041814Z 01004KT 13/03 A3019 RMK A01 T01260027  RH  051%=      5-min Rain = 0
KAD1 041815Z 03006KT 13/03 A3019 RMK A01 T01270026  RH  050%=      5-min Rain = 0
KAD1 041816Z 04006KT 13/02 A3019 RMK A01 T01260017  RH  048%=      5-min Rain = 0
KAD1 041817Z 09005KT 12/02 A3019 RMK A01 T01240022  RH  050%=      5-min Rain = 0
KAD1 041818Z 13002KT 12/02 A3019 RMK A01 T01240016  RH  047%=      5-min Rain = 0
KAD1 041819Z 12003KT 12/02 A3019 RMK A01 T01240017  RH  048%=      5-min Rain = 0
KAD1 041820Z 15003KT 12/01 A3019 RMK A01 T01240011  RH  046%=      5-min Rain = 0
KAD1 041821Z 13002KT 12/02 A3019 RMK A01 T01240020  RH  049%=      5-min Rain = 0
KAD1 041822Z 11002KT 13/02 A3019 RMK A01 T01260021  RH  049%=      5-min Rain = 0
KAD1 041823Z 09002KT 13/02 A3019 RMK A01 T01270016  RH  047%=      5-min Rain = 0
KAD1 041824Z 08005KT 13/02 A3019 RMK A01 T01270023  RH  049%=      5-min Rain = 0
KAD1 041825Z 03004KT 13/02 A3019 RMK A01 T01260020  RH  048%=      5-min Rain = 0
KAD1 041826Z 00004KT 13/02 A3019 RMK A01 T01250024  RH  050%=      5-min Rain = 0
KAD1 041827Z 00005KT 13/03 A3019 RMK A01 T01260026  RH  050%=      5-min Rain = 0
KAD1 041828Z 34005KT 13/02 A3019 RMK A01 T01270022  RH  049%=      5-min Rain = 0
KAD1 041829Z 34004KT 13/02 A3019 RMK A01 T01260018  RH  048%=      5-min Rain = 0
KAD1 041830Z 35006KT 12/03 A3019 RMK A01 T01240026  RH  051%=      5-min Rain = 0
KAD1 041831Z 35005KT 12/02 A3019 RMK A01 T01240022  RH  050%=      5-min Rain = 0
KAD1 041832Z 04007KT 12/03 A3019 RMK A01 T01230025  RH  051%=      5-min Rain = 0
KAD1 041833Z 09005KT 13/03 A3019 RMK A01 T01250027  RH  051%=      5-min Rain = 0
KAD1 041834Z 07003KT 13/02 A3018 RMK A01 T01270024  RH  050%=      5-min Rain = 0
KAD1 041835Z 06006KT 13/03 A3018 RMK A01 T01280030  RH  051%=      5-min Rain = 0
KAD1 041836Z 05005KT 13/02 A3018 RMK A01 T01300022  RH  048%=      5-min Rain = 0
KAD1 041837Z 09003KT 13/02 A3018 RMK A01 T01290021  RH  048%=      5-min Rain = 0
KAD1 041838Z 07006KT 13/03 A3018 RMK A01 T01290025  RH  049%=      5-min Rain = 0
KAD1 041839Z 10003KT 13/02 A3018 RMK A01 T01280017  RH  047%=      5-min Rain = 0
KAD1 041840Z 09003KT 13/02 A3018 RMK A01 T01270019  RH  048%=      5-min Rain = 0
KAD1 041841Z 12002KT 13/02 A3018 RMK A01 T01270017  RH  047%=      5-min Rain = 0
KAD1 041842Z 11002G7KT 13/02 A3018 RMK A01 T01270019  RH  048%=      5-min Rain = 0
KAD1 041843Z 07005KT 13/02 A3018 RMK A01 T01290022  RH  048%=      5-min Rain = 0
KAD1 041844Z 06003KT 13/02 A3018 RMK A01 T01280017  RH  047%=      5-min Rain = 0
KAD1 041845Z 05004KT 13/02 A3018 RMK A01 T01260018  RH  048%=      5-min Rain = 0
KAD1 041846Z 09004KT 12/02 A3018 RMK A01 T01240019  RH  049%=      5-min Rain = 0
KAD1 041847Z 10003KT 12/02 A3018 RMK A01 T01240024  RH  050%=      5-min Rain = 0
KAD1 041848Z 13003KT 13/02 A3018 RMK A01 T01250024  RH  050%=      5-min Rain = 0
KAD1 041849Z 14004KT 13/03 A3018 RMK A01 T01280029  RH  051%=      5-min Rain = 0
KAD1 041850Z 11002KT 13/03 A3018 RMK A01 T01310027  RH  049%=      5-min Rain = 0
KAD1 041851Z 03002KT 13/03 A3018 RMK A01 T01320025  RH  048%=      5-min Rain = 0
KAD1 041852Z 34003KT 13/03 A3018 RMK A01 T01320025  RH  048%=      5-min Rain = 0
KAD1 041853Z 31002KT 13/03 A3018 RMK A01 T01320027  RH  049%=      5-min Rain = 0
KAD1 041854Z 35003KT 13/03 A3018 RMK A01 T01310027  RH  049%=      5-min Rain = 0
KAD1 041855Z 34002KT 13/02 A3018 RMK A01 T01300019  RH  047%=      5-min Rain = 0
KAD1 041856Z 30001KT 13/01 A3018 RMK A01 T01270014  RH  046%=      5-min Rain = 0
KAD1 041857Z 29001KT 13/02 A3018 RMK A01 T01260016  RH  047%=      5-min Rain = 0
KAD1 041858Z 34003KT 13/02 A3018 RMK A01 T01260020  RH  048%=      5-min Rain = 0
KAD1 041859Z 01006KT 13/03 A3018 RMK A01 T01270025  RH  050%=      5-min Rain = 0
KAD1 041900Z 00004KT 13/02 A3018 RMK A01 T01280020  RH  048%=      5-min Rain = 0
KAD1 041901Z 02006KT 13/03 A3018 RMK A01 T01280025  RH  049%=      5-min Rain = 0
KAD1 041902Z 01008KT 13/03 A3018 RMK A01 T01310026  RH  049%=      5-min Rain = 0
KAD1 041903Z 03005KT 13/03 A3018 RMK A01 T01330025  RH  048%=      5-min Rain = 0
KAD1 041904Z 03004KT 13/02 A3018 RMK A01 T01330021  RH  047%=      5-min Rain = 0
KAD1 041905Z 01003KT 13/02 A3018 RMK A01 T01320018  RH  046%=      5-min Rain = 0
KAD1 041906Z 33005KT 13/02 A3018 RMK A01 T01320023  RH  048%=      5-min Rain = 0
KAD1 041907Z 34004KT 13/02 A3018 RMK A01 T01330023  RH  047%=      5-min Rain = 0
KAD1 041908Z 31003KT 13/02 A3018 RMK A01 T01330017  RH  045%=      5-min Rain = 0
KAD1 041909Z 33002KT 13/02 A3018 RMK A01 T01310018  RH  046%=      5-min Rain = 0
KAD1 041910Z 32000KT 13/02 A3018 RMK A01 T01310017  RH  046%=      5-min Rain = 0
KAD1 041911Z 03000KT 13/02 A3017 RMK A01 T01330020  RH  046%=      5-min Rain = 0
KAD1 041912Z 03004KT 14/02 A3017 RMK A01 T01360024  RH  047%=      5-min Rain = 0
KAD1 041913Z 04006KT 14/03 A3017 RMK A01 T01380025  RH  046%=      5-min Rain = 0
KAD1 041914Z 03006KT 14/02 A3017 RMK A01 T01390024  RH  046%=      5-min Rain = 0
KAD1 041915Z 02005KT 14/02 A3017 RMK A01 T01370018  RH  045%=      5-min Rain = 0
KAD1 041916Z 03004KT 14/02 A3017 RMK A01 T01350019  RH  045%=      5-min Rain = 0
KAD1 041917Z 03003KT 13/01 A3017 RMK A01 T01340014  RH  044%=      5-min Rain = 0
KAD1 041918Z 00005KT 13/02 A3017 RMK A01 T01340022  RH  047%=      5-min Rain = 0
KAD1 041919Z 01007KT 14/03 A3017 RMK A01 T01360027  RH  048%=      5-min Rain = 0
KAD1 041920Z 01006KT 14/03 A3017 RMK A01 T01390025  RH  046%=      5-min Rain = 0
KAD1 041921Z 35005KT 14/02 A3017 RMK A01 T01370021  RH  045%=      5-min Rain = 0
KAD1 041922Z 00007KT 14/03 A3017 RMK A01 T01370031  RH  049%=      5-min Rain = 0
KAD1 041923Z 03004KT 14/02 A3017 RMK A01 T01390024  RH  045%=      5-min Rain = 0
KAD1 041924Z 09002KT 14/02 A3017 RMK A01 T01390021  RH  045%=      5-min Rain = 0
KAD1 041925Z 16001KT 14/02 A3017 RMK A01 T01390019  RH  044%=      5-min Rain = 0
KAD1 041926Z 17001KT 14/02 A3017 RMK A01 T01390018  RH  044%=      5-min Rain = 0
KAD1 041927Z 16002KT 14/02 A3017 RMK A01 T01390017  RH  044%=      5-min Rain = 0
KAD1 041928Z 12004KT 14/02 A3017 RMK A01 T01390022  RH  045%=      5-min Rain = 0
KAD1 041929Z 13004KT 14/02 A3017 RMK A01 T01400024  RH  045%=      5-min Rain = 0
KAD1 041930Z 12003KT 14/02 A3017 RMK A01 T01410020  RH  044%=      5-min Rain = 0
KAD1 041931Z 13004KT 14/02 A3017 RMK A01 T01410022  RH  044%=      5-min Rain = 0
KAD1 041932Z 10005KT 14/03 A3016 RMK A01 T01420027  RH  046%=      5-min Rain = 0
KAD1 041933Z 16005KT 14/03 A3016 RMK A01 T01440031  RH  046%=      5-min Rain = 0
KAD1 041934Z 23004KT 15/03 A3017 RMK A01 T01460029  RH  045%=      5-min Rain = 0
KAD1 041935Z 28008KT 15/03 A3017 RMK A01 T01470029  RH  045%=      5-min Rain = 0
KAD1 041936Z 30006KT 15/02 A3017 RMK A01 T01470022  RH  043%=      5-min Rain = 0
KAD1 041937Z 31003KT 14/02 A3016 RMK A01 T01420018  RH  043%=      5-min Rain = 0
KAD1 041938Z 29003KT 14/02 A3016 RMK A01 T01410021  RH  044%=      5-min Rain = 0
KAD1 041939Z 29005KT 14/02 A3016 RMK A01 T01410022  RH  044%=      5-min Rain = 0
KAD1 041940Z 31005KT 14/02 A3016 RMK A01 T01410020  RH  044%=      5-min Rain = 0
KAD1 041941Z 32007KT 14/02 A3016 RMK A01 T01410023  RH  045%=      5-min Rain = 0
KAD1 041942Z 32006KT 14/02 A3016 RMK A01 T01410020  RH  044%=      5-min Rain = 0
KAD1 041943Z 35004KT 14/02 A3016 RMK A01 T01410020  RH  044%=      5-min Rain = 0
KAD1 041944Z 33003KT 14/02 A3016 RMK A01 T01400021  RH  045%=      5-min Rain = 0
KAD1 041945Z 33008KT 14/03 A3016 RMK A01 T01430028  RH  046%=      5-min Rain = 0
KAD1 041946Z 33007KT 14/02 A3016 RMK A01 T01430021  RH  044%=      5-min Rain = 0
KAD1 041947Z 34005KT 14/02 A3016 RMK A01 T01410019  RH  043%=      5-min Rain = 0
KAD1 041948Z 35005KT 14/02 A3016 RMK A01 T01410019  RH  044%=      5-min Rain = 0
KAD1 041949Z 35004KT 14/03 A3016 RMK A01 T01410027  RH  046%=      5-min Rain = 0
KAD1 041950Z 01002KT 14/02 A3016 RMK A01 T01410016  RH  043%=      5-min Rain = 0
KAD1 041951Z 33002KT 14/02 A3016 RMK A01 T01390017  RH  043%=      5-min Rain = 0
KAD1 041952Z 31001KT 14/02 A3016 RMK A01 T01390017  RH  043%=      5-min Rain = 0
KAD1 041953Z 36000KT 14/02 A3016 RMK A01 T01410018  RH  043%=      5-min Rain = 0
KAD1 041954Z 13000KT 14/02 A3016 RMK A01 T01440024  RH  045%=      5-min Rain = 0
KAD1 041955Z 14001KT 15/02 A3016 RMK A01 T01470020  RH  042%=      5-min Rain = 0
KAD1 041956Z 10003KT 15/02 A3016 RMK A01 T01460019  RH  042%=      5-min Rain = 0
KAD1 041957Z 09002KT 14/02 A3016 RMK A01 T01430016  RH  042%=      5-min Rain = 0
KAD1 041958Z 08002KT 14/02 A3016 RMK A01 T01420020  RH  044%=      5-min Rain = 0
KAD1 041959Z 09002KT 14/02 A3015 RMK A01 T01420019  RH  043%=      5-min Rain = 0
KAD1 042000Z 08001KT 14/02 A3015 RMK A01 T01420022  RH  044%=      5-min Rain = 0
KAD1 042001Z 00000KT 14/02 A3015 RMK A01 T01430019  RH  043%=      5-min Rain = 0
KAD1 042002Z 08001KT 14/02 A3015 RMK A01 T01440019  RH  043%=      5-min Rain = 0
KAD1 042003Z 08002KT 14/02 A3015 RMK A01 T01440020  RH  043%=      5-min Rain = 0
KAD1 042004Z 04003KT 15/03 A3015 RMK A01 T01460030  RH  046%=      5-min Rain = 0
KAD1 042005Z 02004KT 15/02 A3015 RMK A01 T01460023  RH  043%=      5-min Rain = 0
KAD1 042006Z 04001KT 14/02 A3015 RMK A01 T01430015  RH  042%=      5-min Rain = 0
KAD1 042007Z 04001KT 14/02 A3015 RMK A01 T01410019  RH  044%=      5-min Rain = 0
KAD1 042008Z 34004KT 14/02 A3015 RMK A01 T01420024  RH  045%=      5-min Rain = 0
KAD1 042009Z 31006KT 15/03 A3015 RMK A01 T01450028  RH  045%=      5-min Rain = 0
KAD1 042010Z 32006KT 15/03 A3015 RMK A01 T01470026  RH  044%=      5-min Rain = 0
KAD1 042011Z 34005KT 15/02 A3015 RMK A01 T01470024  RH  043%=      5-min Rain = 0
KAD1 042012Z 32004KT 15/02 A3015 RMK A01 T01460022  RH  043%=      5-min Rain = 0
KAD1 042013Z 36003KT 14/02 A3015 RMK A01 T01440020  RH  043%=      5-min Rain = 0
KAD1 042014Z 02004KT 14/02 A3015 RMK A01 T01430020  RH  043%=      5-min Rain = 0
KAD1 042015Z 04006KT 14/02 A3015 RMK A01 T01430020  RH  043%=      5-min Rain = 0
KAD1 042016Z 05006KT 14/02 A3015 RMK A01 T01430020  RH  043%=      5-min Rain = 0
KAD1 042017Z 04005KT 14/03 A3015 RMK A01 T01430027  RH  045%=      5-min Rain = 0
KAD1 042018Z 03005KT 15/02 A3014 RMK A01 T01450021  RH  043%=      5-min Rain = 0
KAD1 042019Z 00006KT 14/03 A3014 RMK A01 T01430025  RH  045%=      5-min Rain = 0
KAD1 042020Z 35007KT 14/03 A3014 RMK A01 T01440030  RH  046%=      5-min Rain = 0
KAD1 042021Z 34005KT 15/02 A3014 RMK A01 T01450021  RH  043%=      5-min Rain = 0
KAD1 042022Z 32003KT 14/02 A3014 RMK A01 T01430023  RH  044%=      5-min Rain = 0
KAD1 042023Z 31002KT 14/02 A3014 RMK A01 T01430018  RH  043%=      5-min Rain = 0
KAD1 042024Z 34002KT 14/02 A3014 RMK A01 T01430020  RH  043%=      5-min Rain = 0
KAD1 042025Z 33003KT 14/02 A3014 RMK A01 T01440023  RH  044%=      5-min Rain = 0
KAD1 042026Z 31002KT 15/02 A3014 RMK A01 T01450023  RH  044%=      5-min Rain = 0
KAD1 042027Z 01005KT 15/03 A3014 RMK A01 T01480033  RH  046%=      5-min Rain = 0
KAD1 042028Z 01005KT 15/03 A3014 RMK A01 T01500031  RH  045%=      5-min Rain = 0
KAD1 042029Z 36006KT 15/03 A3014 RMK A01 T01510034  RH  045%=      5-min Rain = 0
KAD1 042030Z 33006KT 15/03 A3014 RMK A01 T01530027  RH  043%=      5-min Rain = 0
KAD1 042031Z 03005KT 15/02 A3014 RMK A01 T01480019  RH  042%=      5-min Rain = 0
KAD1 042032Z 02005KT 15/02 A3014 RMK A01 T01450021  RH  043%=      5-min Rain = 0
KAD1 042033Z 34004KT 15/03 A3014 RMK A01 T01450025  RH  044%=      5-min Rain = 0
KAD1 042034Z 35004KT 15/03 A3014 RMK A01 T01460025  RH  044%=      5-min Rain = 0
KAD1 042035Z 32004KT 15/03 A3014 RMK A01 T01480029  RH  045%=      5-min Rain = 0
KAD1 042036Z 32003KT 15/02 A3014 RMK A01 T01500024  RH  043%=      5-min Rain = 0
KAD1 042037Z 22003KT 15/03 A3014 RMK A01 T01510031  RH  045%=      5-min Rain = 0
KAD1 042038Z 25004KT 15/03 A3014 RMK A01 T01530027  RH  043%=      5-min Rain = 0
KAD1 042039Z 29006KT 15/03 A3014 RMK A01 T01540033  RH  044%=      5-min Rain = 0
KAD1 042040Z 30007KT 16/03 A3013 RMK A01 T01550027  RH  042%=      5-min Rain = 0
KAD1 042041Z 29007KT 15/03 A3013 RMK A01 T01530026  RH  042%=      5-min Rain = 0
KAD1 042042Z 28006KT 15/03 A3013 RMK A01 T01510027  RH  043%=      5-min Rain = 0
KAD1 042043Z 29003KT 15/02 A3013 RMK A01 T01510023  RH  042%=      5-min Rain = 0
KAD1 042044Z 31003KT 15/02 A3013 RMK A01 T01490022  RH  042%=      5-min Rain = 0
KAD1 042045Z 31001KT 15/02 A3013 RMK A01 T01490020  RH  042%=      5-min Rain = 0
KAD1 042046Z 29001KT 15/03 A3013 RMK A01 T01490025  RH  043%=      5-min Rain = 0
KAD1 042047Z 33006KT 15/03 A3013 RMK A01 T01520033  RH  045%=      5-min Rain = 0
KAD1 042048Z 32004KT 15/03 A3013 RMK A01 T01530025  RH  042%=      5-min Rain = 0
KAD1 042049Z 34004KT 15/03 A3013 RMK A01 T01520026  RH  043%=      5-min Rain = 0
KAD1 042050Z 32004KT 15/03 A3013 RMK A01 T01520031  RH  044%=      5-min Rain = 0
KAD1 042051Z 31006KT 15/03 A3013 RMK A01 T01540030  RH  043%=      5-min Rain = 0
KAD1 042052Z 30006KT 15/03 A3013 RMK A01 T01540027  RH  042%=      5-min Rain = 0
KAD1 042053Z 29006KT 15/03 A3013 RMK A01 T01530026  RH  042%=      5-min Rain = 0
KAD1 042054Z 30005KT 15/03 A3013 RMK A01 T01530026  RH  043%=      5-min Rain = 0
KAD1 042055Z 32005KT 15/03 A3013 RMK A01 T01530029  RH  044%=      5-min Rain = 0
KAD1 042056Z 32006KT 15/02 A3013 RMK A01 T01530023  RH  042%=      5-min Rain = 0
KAD1 042057Z 34005KT 15/03 A3013 RMK A01 T01510026  RH  043%=      5-min Rain = 0
KAD1 042058Z 35005KT 15/02 A3013 RMK A01 T01510024  RH  042%=      5-min Rain = 0
KAD1 042059Z 35004KT 15/02 A3013 RMK A01 T01490022  RH  042%=      5-min Rain = 0
KAD1 042100Z 29004KT 15/03 A3013 RMK A01 T01490027  RH  044%=      5-min Rain = 0
KAD1 042101Z 32003KT 15/02 A3013 RMK A01 T01500024  RH  042%=      5-min Rain = 0
KAD1 042102Z 33003KT 15/02 A3013 RMK A01 T01500024  RH  042%=      5-min Rain = 0
KAD1 042103Z 32004KT 15/03 A3012 RMK A01 T01500025  RH  043%=      5-min Rain = 0
KAD1 042104Z 33007KT 15/03 A3012 RMK A01 T01500027  RH  043%=      5-min Rain = 0
KAD1 042105Z 33005KT 15/03 A3012 RMK A01 T01510028  RH  044%=      5-min Rain = 0
KAD1 042106Z 31003KT 15/03 A3012 RMK A01 T01510028  RH  044%=      5-min Rain = 0
KAD1 042107Z 27002KT 15/03 A3012 RMK A01 T01520026  RH  043%=      5-min Rain = 0
KAD1 042108Z 31000KT 15/02 A3012 RMK A01 T01520022  RH  041%=      5-min Rain = 0
KAD1 042109Z 29001KT 15/03 A3012 RMK A01 T01530030  RH  044%=      5-min Rain = 0
KAD1 042110Z 30002KT 16/03 A3012 RMK A01 T01560031  RH  043%=      5-min Rain = 0
KAD1 042111Z 30002KT 16/02 A3012 RMK A01 T01560024  RH  041%=      5-min Rain = 0
KAD1 042112Z 34002KT 16/03 A3012 RMK A01 T01550025  RH  041%=      5-min Rain = 0
KAD1 042113Z 34001KT 15/03 A3012 RMK A01 T01530025  RH  042%=      5-min Rain = 0
KAD1 042114Z 00002KT 15/02 A3012 RMK A01 T01540024  RH  042%=      5-min Rain = 0
KAD1 042115Z 34003KT 15/03 A3012 RMK A01 T01540028  RH  043%=      5-min Rain = 0
KAD1 042116Z 25005KT 15/03 A3012 RMK A01 T01540027  RH  043%=      5-min Rain = 0
KAD1 042117Z 25008KT 16/03 A3012 RMK A01 T01560030  RH  043%=      5-min Rain = 0
KAD1 042118Z 24009KT 16/03 A3012 RMK A01 T01580032  RH  043%=      5-min Rain = 0
KAD1 042119Z 24007KT 16/03 A3012 RMK A01 T01590028  RH  041%=      5-min Rain = 0
KAD1 042120Z 25008KT 16/03 A3012 RMK A01 T01580029  RH  042%=      5-min Rain = 0
KAD1 042121Z 25004KT 16/03 A3012 RMK A01 T01570025  RH  041%=      5-min Rain = 0
KAD1 042122Z 25005KT 16/03 A3012 RMK A01 T01550029  RH  043%=      5-min Rain = 0
KAD1 042123Z 27009KT 16/03 A3012 RMK A01 T01560029  RH  042%=      5-min Rain = 0
KAD1 042124Z 29007KT 16/03 A3012 RMK A01 T01560027  RH  042%=      5-min Rain = 0
KAD1 042125Z 28007G12KT 16/03 A3012 RMK A01 T01550031  RH  043%=      5-min Rain = 0
KAD1 042126Z 27007KT 16/03 A3012 RMK A01 T01560029  RH  042%=      5-min Rain = 0
KAD1 042127Z 27008KT 16/03 A3012 RMK A01 T01560032  RH  043%=      5-min Rain = 0
KAD1 042128Z 26007KT 16/03 A3011 RMK A01 T01550028  RH  042%=      5-min Rain = 0
KAD1 042129Z 27007KT 16/03 A3011 RMK A01 T01550028  RH  042%=      5-min Rain = 0
KAD1 042130Z 28005KT 15/03 A3011 RMK A01 T01540025  RH  042%=      5-min Rain = 0
KAD1 042131Z 27003KT 15/03 A3011 RMK A01 T01520025  RH  042%=      5-min Rain = 0
KAD1 042132Z 22006KT 15/03 A3011 RMK A01 T01540034  RH  044%=      5-min Rain = 0
KAD1 042133Z 22004KT 16/03 A3011 RMK A01 T01580032  RH  043%=      5-min Rain = 0
KAD1 042134Z 22008KT 16/03 A3011 RMK A01 T01610034  RH  043%=      5-min Rain = 0
KAD1 042135Z 21006KT 16/03 A3011 RMK A01 T01590026  RH  041%=      5-min Rain = 0
KAD1 042136Z 20003KT 16/03 A3011 RMK A01 T01550026  RH  042%=      5-min Rain = 0
KAD1 042137Z 23002KT 15/02 A3011 RMK A01 T01530023  RH  042%=      5-min Rain = 0
KAD1 042138Z 14002KT 15/02 A3011 RMK A01 T01510024  RH  042%=      5-min Rain = 0
KAD1 042139Z 19005KT 15/03 A3011 RMK A01 T01500028  RH  044%=      5-min Rain = 0
KAD1 042140Z 20005KT 15/03 A3011 RMK A01 T01500029  RH  044%=      5-min Rain = 0
KAD1 042141Z 21003KT 15/03 A3011 RMK A01 T01520032  RH  045%=      5-min Rain = 0
KAD1 042142Z 18004KT 15/03 A3011 RMK A01 T01540031  RH  044%=      5-min Rain = 0
KAD1 042143Z 19004KT 16/03 A3011 RMK A01 T01550030  RH  043%=      5-min Rain = 0
KAD1 042144Z 16001KT 16/03 A3011 RMK A01 T01550029  RH  043%=      5-min Rain = 0
KAD1 042145Z 16003KT 16/03 A3011 RMK A01 T01560034  RH  044%=      5-min Rain = 0
KAD1 042146Z 16005KT 16/03 A301 RMK A01 T01580034  RH  043%=      5-min Rain = 0
KAD1 042147Z 15005KT 16/03 A301 RMK A01 T01580030  RH  042%=      5-min Rain = 0
KAD1 042148Z 14004KT 16/03 A301 RMK A01 T01570029  RH  042%=      5-min Rain = 0
KAD1 042149Z 08004KT 16/03 A301 RMK A01 T01560031  RH  043%=      5-min Rain = 0
KAD1 042150Z 29006KT 16/03 A301 RMK A01 T01560031  RH  043%=      5-min Rain = 0
KAD1 042151Z 26004KT 16/03 A301 RMK A01 T01550029  RH  043%=      5-min Rain = 0
KAD1 042152Z 26008KT 16/03 A301 RMK A01 T01550031  RH  043%=      5-min Rain = 0
KAD1 042153Z 27009KT 16/03 A301 RMK A01 T01570031  RH  043%=      5-min Rain = 0
KAD1 042154Z 26005KT 16/03 A301 RMK A01 T01570031  RH  043%=      5-min Rain = 0
KAD1 042155Z 28007KT 16/04 A301 RMK A01 T01600035  RH  043%=      5-min Rain = 0
KAD1 042156Z 27008KT 16/03 A301 RMK A01 T01610032  RH  042%=      5-min Rain = 0
KAD1 042157Z 26009KT 16/03 A301 RMK A01 T01610031  RH  042%=      5-min Rain = 0
KAD1 042158Z 24007KT 16/03 A301 RMK A01 T01610028  RH  041%=      5-min Rain = 0
KAD1 042159Z 24008KT 16/03 A301 RMK A01 T01590029  RH  042%=      5-min Rain = 0
KAD1 042200Z 23005KT 16/03 A301 RMK A01 T01570025  RH  041%=      5-min Rain = 0
KAD1 042201Z 23005KT 15/03 A301 RMK A01 T01540026  RH  042%=      5-min Rain = 0
KAD1 042202Z 28004KT 15/03 A301 RMK A01 T01540028  RH  043%=      5-min Rain = 0
KAD1 042203Z 29003KT 16/03 A301 RMK A01 T01560034  RH  044%=      5-min Rain = 0
KAD1 042204Z 27005KT 16/04 A301 RMK A01 T01600035  RH  043%=      5-min Rain = 0
KAD1 042205Z 25006KT 16/03 A301 RMK A01 T01610034  RH  042%=      5-min Rain = 0
KAD1 042206Z 25005KT 16/03 A301 RMK A01 T01620029  RH  041%=      5-min Rain = 0
KAD1 042207Z 25003KT 16/03 A301 RMK A01 T01610033  RH  043%=      5-min Rain = 0
KAD1 042208Z 27006KT 16/03 A301 RMK A01 T01620031  RH  042%=      5-min Rain = 0
KAD1 042209Z 28003KT 16/03 A301 RMK A01 T01610029  RH  041%=      5-min Rain = 0
KAD1 042210Z 26002KT 16/03 A3009 RMK A01 T01590026  RH  041%=      5-min Rain = 0
KAD1 042211Z 23004KT 16/03 A3009 RMK A01 T01590033  RH  043%=      5-min Rain = 0
KAD1 042212Z 24006KT 16/03 A3009 RMK A01 T01610031  RH  042%=      5-min Rain = 0
KAD1 042213Z 22002KT 16/03 A3009 RMK A01 T01610026  RH  040%=      5-min Rain = 0
KAD1 042214Z 23003KT 16/03 A3009 RMK A01 T01590025  RH  040%=      5-min Rain = 0
KAD1 042215Z 23003KT 16/03 A3009 RMK A01 T01590029  RH  042%=      5-min Rain = 0
KAD1 042216Z 24002KT 16/03 A3009 RMK A01 T01600030  RH  042%=      5-min Rain = 0
KAD1 042217Z 28005KT 16/03 A301 RMK A01 T01610030  RH  041%=      5-min Rain = 0
KAD1 042218Z 28004KT 16/03 A3009 RMK A01 T01610029  RH  041%=      5-min Rain = 0
KAD1 042219Z 30007KT 16/03 A3009 RMK A01 T01600031  RH  042%=      5-min Rain = 0
KAD1 042220Z 32006KT 16/03 A3009 RMK A01 T01610029  RH  041%=      5-min Rain = 0
KAD1 042221Z 32005KT 16/03 A3009 RMK A01 T01600030  RH  042%=      5-min Rain = 0
KAD1 042222Z 32006KT 16/03 A3009 RMK A01 T01590031  RH  042%=      5-min Rain = 0
KAD1 042223Z 32005KT 16/03 A3009 RMK A01 T01590029  RH  042%=      5-min Rain = 0
KAD1 042224Z 30005KT 16/03 A3009 RMK A01 T01580032  RH  043%=      5-min Rain = 0
KAD1 042225Z 26006KT 16/04 A3009 RMK A01 T01600037  RH  044%=      5-min Rain = 0
KAD1 042226Z 27005KT 16/04 A3009 RMK A01 T01630035  RH  043%=      5-min Rain = 0
KAD1 042227Z 27004KT 16/03 A3009 RMK A01 T01640034  RH  042%=      5-min Rain = 0
KAD1 042228Z 29004KT 16/03 A3009 RMK A01 T01640032  RH  041%=      5-min Rain = 0
KAD1 042229Z 30008KT 16/04 A3009 RMK A01 T01640036  RH  042%=      5-min Rain = 0
KAD1 042230Z 32005KT 16/04 A3009 RMK A01 T01630035  RH  042%=      5-min Rain = 0
KAD1 042231Z 31003KT 16/04 A3009 RMK A01 T01640035  RH  042%=      5-min Rain = 0
KAD1 042232Z 35003KT 16/04 A3009 RMK A01 T01640038  RH  043%=      5-min Rain = 0
KAD1 042233Z 32002KT 17/04 A3009 RMK A01 T01660040  RH  043%=      5-min Rain = 0
KAD1 042234Z 32003KT 17/03 A3009 RMK A01 T01660034  RH  041%=      5-min Rain = 0
KAD1 042235Z 28005KT 17/04 A3009 RMK A01 T01650037  RH  042%=      5-min Rain = 0
KAD1 042236Z 28006KT 17/04 A3009 RMK A01 T01660039  RH  043%=      5-min Rain = 0
KAD1 042237Z 26005KT 17/04 A3009 RMK A01 T01670037  RH  042%=      5-min Rain = 0
KAD1 042238Z 27007KT 17/04 A3009 RMK A01 T01690036  RH  041%=      5-min Rain = 0
KAD1 042239Z 28005KT 17/03 A3009 RMK A01 T01670034  RH  041%=      5-min Rain = 0
KAD1 042240Z 26005KT 17/04 A3009 RMK A01 T01660037  RH  042%=      5-min Rain = 0
KAD1 042241Z 26006KT 17/04 A3009 RMK A01 T01670038  RH  042%=      5-min Rain = 0
KAD1 042242Z 26006KT 17/04 A3009 RMK A01 T01680036  RH  041%=      5-min Rain = 0
KAD1 042243Z 26005KT 17/04 A3009 RMK A01 T01680037  RH  042%=      5-min Rain = 0
KAD1 042244Z 25006G11KT 17/04 A3009 RMK A01 T01680036  RH  041%=      5-min Rain = 0
KAD1 042245Z 24007KT 17/04 A3009 RMK A01 T01680035  RH  041%=      5-min Rain = 0
KAD1 042246Z 24004KT 17/03 A3009 RMK A01 T01660031  RH  040%=      5-min Rain = 0
KAD1 042247Z 24005KT 16/03 A3009 RMK A01 T01630031  RH  041%=      5-min Rain = 0
KAD1 042248Z 23004KT 16/03 A3009 RMK A01 T01630033  RH  042%=      5-min Rain = 0
KAD1 042249Z 22006KT 16/03 A3009 RMK A01 T01630034  RH  042%=      5-min Rain = 0
KAD1 042250Z 24006KT 17/04 A3009 RMK A01 T01650036  RH  042%=      5-min Rain = 0
KAD1 042251Z 24004KT 17/03 A3009 RMK A01 T01650032  RH  041%=      5-min Rain = 0
KAD1 042252Z 24002KT 16/03 A3009 RMK A01 T01630030  RH  041%=      5-min Rain = 0
KAD1 042253Z 24005KT 16/03 A3009 RMK A01 T01630034  RH  042%=      5-min Rain = 0
KAD1 042254Z 23004KT 16/03 A3009 RMK A01 T01640033  RH  041%=      5-min Rain = 0
KAD1 042255Z 22004KT 16/03 A3009 RMK A01 T01640032  RH  041%=      5-min Rain = 0
KAD1 042256Z 20004KT 16/03 A3009 RMK A01 T01630031  RH  041%=      5-min Rain = 0
KAD1 042257Z 19002KT 16/03 A3009 RMK A01 T01610029  RH  041%=      5-min Rain = 0
KAD1 042258Z 21002KT 16/03 A3009 RMK A01 T01600033  RH  043%=      5-min Rain = 0
KAD1 042259Z 22002KT 16/03 A3009 RMK A01 T01610030  RH  041%=      5-min Rain = 0
KAD1 042300Z 33000KT 16/04 A3009 RMK A01 T01620036  RH  043%=      5-min Rain = 0
KAD1 042301Z 25001KT 17/03 A3009 RMK A01 T01650033  RH  041%=      5-min Rain = 0
KAD1 042302Z 30004KT 17/04 A3009 RMK A01 T01670036  RH  042%=      5-min Rain = 0
KAD1 042303Z 30003KT 17/03 A3009 RMK A01 T01670032  RH  040%=      5-min Rain = 0
KAD1 042304Z 30006KT 17/04 A3009 RMK A01 T01660036  RH  042%=      5-min Rain = 0
KAD1 042305Z 29004KT 17/04 A3009 RMK A01 T01660038  RH  042%=      5-min Rain = 0
KAD1 042306Z 32005KT 17/04 A3009 RMK A01 T01670037  RH  042%=      5-min Rain = 0
KAD1 042307Z 30004KT 17/03 A3009 RMK A01 T01660034  RH  041%=      5-min Rain = 0
KAD1 042308Z 31003KT 16/03 A3009 RMK A01 T01640030  RH  041%=      5-min Rain = 0
KAD1 042309Z 31001KT 16/03 A3009 RMK A01 T01620031  RH  041%=      5-min Rain = 0
KAD1 042310Z 27004KT 16/04 A3009 RMK A01 T01630038  RH  043%=      5-min Rain = 0
KAD1 042311Z 22007KT 17/04 A3009 RMK A01 T01660036  RH  042%=      5-min Rain = 0
KAD1 042312Z 21005KT 17/03 A3009 RMK A01 T01650033  RH  041%=      5-min Rain = 0
KAD1 042313Z 25007KT 17/04 A3009 RMK A01 T01650036  RH  042%=      5-min Rain = 0
KAD1 042314Z 24007KT 17/04 A3009 RMK A01 T01660036  RH  042%=      5-min Rain = 0
KAD1 042315Z 24007KT 17/03 A3009 RMK A01 T01670033  RH  041%=      5-min Rain = 0
KAD1 042316Z 27009KT 17/04 A3009 RMK A01 T01660037  RH  042%=      5-min Rain = 0
KAD1 042317Z 27008KT 17/03 A3009 RMK A01 T01670033  RH  041%=      5-min Rain = 0
KAD1 042318Z 26006KT 17/03 A3009 RMK A01 T01660034  RH  041%=      5-min Rain = 0
KAD1 042319Z 28006KT 17/04 A3009 RMK A01 T01660035  RH  042%=      5-min Rain = 0
KAD1 042320Z 29005KT 17/03 A3009 RMK A01 T01660031  RH  040%=      5-min Rain = 0
KAD1 042321Z 28005KT 17/03 A3009 RMK A01 T01650033  RH  041%=      5-min Rain = 0
KAD1 042322Z 28008KT 17/04 A3009 RMK A01 T01650036  RH  042%=      5-min Rain = 0
KAD1 042323Z 27007KT 17/03 A3009 RMK A01 T01660034  RH  041%=      5-min Rain = 0
KAD1 042324Z 26006KT 17/03 A3009 RMK A01 T01650032  RH  041%=      5-min Rain = 0
KAD1 042325Z 27005KT 16/03 A3009 RMK A01 T01640034  RH  042%=      5-min Rain = 0
KAD1 042326Z 29004KT 16/04 A3009 RMK A01 T01640036  RH  042%=      5-min Rain = 0
KAD1 042327Z 28005KT 17/04 A3009 RMK A01 T01650035  RH  042%=      5-min Rain = 0
KAD1 042328Z 27006KT 17/04 A3009 RMK A01 T01650035  RH  042%=      5-min Rain = 0
KAD1 042329Z 28007KT 17/03 A3009 RMK A01 T01650034  RH  041%=      5-min Rain = 0
KAD1 042330Z 27005KT 16/03 A3009 RMK A01 T01640033  RH  041%=      5-min Rain = 0
KAD1 042331Z 24005KT 16/04 A3009 RMK A01 T01630035  RH  042%=      5-min Rain = 0
KAD1 042332Z 22004KT 16/04 A3009 RMK A01 T01640036  RH  042%=      5-min Rain = 0
KAD1 042333Z 25004KT 17/04 A3009 RMK A01 T01650036  RH  042%=      5-min Rain = 0
KAD1 042334Z 27003KT 17/03 A3009 RMK A01 T01660034  RH  041%=      5-min Rain = 0
KAD1 042335Z 27003KT 17/04 A3009 RMK A01 T01660035  RH  041%=      5-min Rain = 0
KAD1 042336Z 30004KT 17/04 A3009 RMK A01 T01660035  RH  042%=      5-min Rain = 0
KAD1 042337Z 30002KT 17/03 A3008 RMK A01 T01660033  RH  041%=      5-min Rain = 0
KAD1 042338Z 26003KT 17/04 A3008 RMK A01 T01660036  RH  042%=      5-min Rain = 0
KAD1 042339Z 25007KT 17/04 A3008 RMK A01 T01670038  RH  042%=      5-min Rain = 0
KAD1 042340Z 25006KT 17/04 A3008 RMK A01 T01680037  RH  042%=      5-min Rain = 0
KAD1 042341Z 25007KT 17/04 A3009 RMK A01 T01690037  RH  041%=      5-min Rain = 0
KAD1 042342Z 24007KT 17/04 A3009 RMK A01 T01690038  RH  042%=      5-min Rain = 0
KAD1 042343Z 26005KT 17/04 A3009 RMK A01 T01690035  RH  041%=      5-min Rain = 0
KAD1 042344Z 26007KT 17/03 A3009 RMK A01 T01680034  RH  041%=      5-min Rain = 0
KAD1 042345Z 26006KT 17/03 A3009 RMK A01 T01660031  RH  041%=      5-min Rain = 0
KAD1 042346Z 26006KT 16/03 A3009 RMK A01 T01630030  RH  041%=      5-min Rain = 0
KAD1 042347Z 28004KT 16/03 A3009 RMK A01 T01630031  RH  041%=      5-min Rain = 0
KAD1 042348Z 26004KT 16/03 A3009 RMK A01 T01630032  RH  042%=      5-min Rain = 0
KAD1 042349Z 24005KT 16/04 A3009 RMK A01 T01640036  RH  043%=      5-min Rain = 0
KAD1 042350Z 24005KT 17/03 A3009 RMK A01 T01650034  RH  041%=      5-min Rain = 0
KAD1 042351Z 27005KT 17/04 A3008 RMK A01 T01650035  RH  042%=      5-min Rain = 0
KAD1 042352Z 27003KT 17/04 A3008 RMK A01 T01650035  RH  042%=      5-min Rain = 0
KAD1 042353Z 28004KT 17/04 A3008 RMK A01 T01660036  RH  042%=      5-min Rain = 0
KAD1 042354Z 30004KT 17/03 A3009 RMK A01 T01660032  RH  041%=      5-min Rain = 0
KAD1 042355Z 33002KT 17/03 A3008 RMK A01 T01650030  RH  041%=      5-min Rain = 0
KAD1 042356Z 36002KT 16/03 A3008 RMK A01 T01620029  RH  041%=      5-min Rain = 0
KAD1 042357Z 34002KT 16/03 A3008 RMK A01 T01620034  RH  042%=      5-min Rain = 0
KAD1 042358Z 31001KT 16/03 A3008 RMK A01 T01630033  RH  042%=      5-min Rain = 0
KAD1 042359Z 31002KT 16/03 A3008 RMK A01 T01640032  RH  041%=      5-min Rain = 0
KAD1 050000Z 31002KT 16/03 A3008 RMK A01 T01640030  RH  041%=      5-min Rain = 0
KAD1 050001Z 31002KT 17/03 A3008 RMK A01 T01650032  RH  041%=      5-min Rain = 0
KAD1 050002Z 31001KT 17/03 A3008 RMK A01 T01650034  RH  041%=      5-min Rain = 0
KAD1 050003Z 34003KT 17/03 A3008 RMK A01 T01660033  RH  041%=      5-min Rain = 0
KAD1 050004Z 33001KT 17/03 A3008 RMK A01 T01660033  RH  041%=      5-min Rain = 0
KAD1 050005Z 28000KT 17/03 A3008 RMK A01 T01650031  RH  041%=      5-min Rain = 0
KAD1 050006Z 27001KT 16/03 A3008 RMK A01 T01640029  RH  040%=      5-min Rain = 0
KAD1 050007Z 27000KT 17/03 A3008 RMK A01 T01650030  RH  040%=      5-min Rain = 0
KAD1 050008Z 27000KT 17/03 A3008 RMK A01 T01660031  RH  040%=      5-min Rain = 0
KAD1 050009Z 27002KT 17/03 A3008 RMK A01 T01670032  RH  040%=      5-min Rain = 0
KAD1 050010Z 22005KT 17/04 A3008 RMK A01 T01690038  RH  042%=      5-min Rain = 0
KAD1 050011Z 22006KT 17/04 A3008 RMK A01 T01690035  RH  041%=      5-min Rain = 0
KAD1 050012Z 22005KT 17/03 A3008 RMK A01 T01670033  RH  041%=      5-min Rain = 0
KAD1 050013Z 19003KT 17/03 A3008 RMK A01 T01650033  RH  041%=      5-min Rain = 0
KAD1 050014Z 17003KT 16/03 A3008 RMK A01 T01640033  RH  042%=      5-min Rain = 0
KAD1 050015Z 18003KT 16/03 A3008 RMK A01 T01640033  RH  042%=      5-min Rain = 0
KAD1 050016Z 17002KT 16/03 A3008 RMK A01 T01640033  RH  042%=      5-min Rain = 0
KAD1 050017Z 17001KT 16/03 A3008 RMK A01 T01640033  RH  041%=      5-min Rain = 0
KAD1 050018Z 23000KT 16/04 A3008 RMK A01 T01640035  RH  042%=      5-min Rain = 0
KAD1 050019Z 24000KT 17/04 A3008 RMK A01 T01660038  RH  042%=      5-min Rain = 0
KAD1 050020Z 22000KT 17/04 A3008 RMK A01 T01680035  RH  041%=      5-min Rain = 0
KAD1 050021Z 30001KT 17/04 A3008 RMK A01 T01690035  RH  041%=      5-min Rain = 0
KAD1 050022Z 28001KT 17/04 A3008 RMK A01 T01700036  RH  041%=      5-min Rain = 0
KAD1 050023Z 29001KT 17/03 A3008 RMK A01 T01710034  RH  040%=      5-min Rain = 0
KAD1 050024Z 24002KT 17/03 A3008 RMK A01 T01700034  RH  040%=      5-min Rain = 0
KAD1 050025Z 22000KT 17/04 A3008 RMK A01 T01700037  RH  041%=      5-min Rain = 0
KAD1 050026Z 32001KT 17/04 A3008 RMK A01 T01710037  RH  041%=      5-min Rain = 0
KAD1 050027Z 30001KT 17/04 A3008 RMK A01 T01710037  RH  041%=      5-min Rain = 0
KAD1 050028Z 15000KT 17/03 A3008 RMK A01 T01720034  RH  040%=      5-min Rain = 0
KAD1 050029Z 22001KT 17/04 A3008 RMK A01 T01710035  RH  040%=      5-min Rain = 0
KAD1 050030Z 09001KT 17/04 A3008 RMK A01 T01710040  RH  042%=      5-min Rain = 0
KAD1 050031Z 16003KT 17/04 A3008 RMK A01 T01710038  RH  041%=      5-min Rain = 0
KAD1 050032Z 21004KT 17/04 A3008 RMK A01 T01700038  RH  041%=      5-min Rain = 0
KAD1 050033Z 21004KT 17/04 A3008 RMK A01 T01680039  RH  042%=      5-min Rain = 0
KAD1 050034Z 22006KT 17/04 A3008 RMK A01 T01680039  RH  042%=      5-min Rain = 0
KAD1 050035Z 23005KT 17/04 A3008 RMK A01 T01660035  RH  041%=      5-min Rain = 0
KAD1 050036Z 21004KT 17/04 A3008 RMK A01 T01660037  RH  042%=      5-min Rain = 0
KAD1 050037Z 22004KT 17/04 A3008 RMK A01 T01650040  RH  043%=      5-min Rain = 0
KAD1 050038Z 21004KT 17/04 A3008 RMK A01 T01650038  RH  043%=      5-min Rain = 0
KAD1 050039Z 22005KT 17/04 A3008 RMK A01 T01650039  RH  043%=      5-min Rain = 0
KAD1 050040Z 22005KT 17/04 A3008 RMK A01 T01650040  RH  043%=      5-min Rain = 0
KAD1 050041Z 22005KT 16/04 A3008 RMK A01 T01640037  RH  043%=      5-min Rain = 0
KAD1 050042Z 23005KT 16/04 A3008 RMK A01 T01640039  RH  043%=      5-min Rain = 0
KAD1 050043Z 21006KT 16/04 A3008 RMK A01 T01640038  RH  043%=      5-min Rain = 0
KAD1 050044Z 20007KT 16/04 A3008 RMK A01 T01630037  RH  043%=      5-min Rain = 0
KAD1 050045Z 19006KT 16/04 A3008 RMK A01 T01620037  RH  043%=      5-min Rain = 0
KAD1 050046Z 19006KT 16/04 A3008 RMK A01 T01620039  RH  044%=      5-min Rain = 0
KAD1 050047Z 19006KT 16/04 A3008 RMK A01 T01620037  RH  043%=      5-min Rain = 0
KAD1 050048Z 19006KT 16/04 A3008 RMK A01 T01620036  RH  043%=      5-min Rain = 0
KAD1 050049Z 19007KT 16/04 A3008 RMK A01 T01620036  RH  043%=      5-min Rain = 0
KAD1 050050Z 19005KT 16/04 A3008 RMK A01 T01620036  RH  043%=      5-min Rain = 0
KAD1 050051Z 19004KT 16/04 A3008 RMK A01 T01620040  RH  044%=      5-min Rain = 0
KAD1 050052Z 19005KT 16/04 A3008 RMK A01 T01620036  RH  043%=      5-min Rain = 0
KAD1 050053Z 20005KT 16/04 A3008 RMK A01 T01610036  RH  043%=      5-min Rain = 0
KAD1 050054Z 19006KT 16/04 A3008 RMK A01 T01620040  RH  044%=      5-min Rain = 0
KAD1 050055Z 19006KT 16/04 A3008 RMK A01 T01620039  RH  044%=      5-min Rain = 0
KAD1 050056Z 19006KT 16/04 A3008 RMK A01 T01620038  RH  044%=      5-min Rain = 0
KAD1 050057Z 19006KT 16/04 A3008 RMK A01 T01610037  RH  044%=      5-min Rain = 0
KAD1 050058Z 19005KT 16/04 A3008 RMK A01 T01610038  RH  044%=      5-min Rain = 0
KAD1 050059Z 19006KT 16/04 A3008 RMK A01 T01600038  RH  044%=      5-min Rain = 0
KAD1 050100Z 19007KT 16/04 A3008 RMK A01 T01600037  RH  044%=      5-min Rain = 0
KAD1 050101Z 19006KT 16/04 A3008 RMK A01 T01600036  RH  043%=      5-min Rain = 0
KAD1 050102Z 20005KT 16/04 A3009 RMK A01 T01600040  RH  045%=      5-min Rain = 0
KAD1 050103Z 21004KT 16/04 A3009 RMK A01 T01590039  RH  045%=      5-min Rain = 0
KAD1 050104Z 21004KT 16/04 A3009 RMK A01 T01580042  RH  046%=      5-min Rain = 0
KAD1 050105Z 22004KT 16/04 A3009 RMK A01 T01580041  RH  046%=      5-min Rain = 0
KAD1 050106Z 22004KT 16/04 A3009 RMK A01 T01580044  RH  047%=      5-min Rain = 0
KAD1 050107Z 21005KT 16/04 A3009 RMK A01 T01570041  RH  046%=      5-min Rain = 0
KAD1 050108Z 21004KT 16/04 A3009 RMK A01 T01570038  RH  045%=      5-min Rain = 0
KAD1 050109Z 22004KT 16/04 A3009 RMK A01 T01570040  RH  046%=      5-min Rain = 0
KAD1 050110Z 21004KT 16/04 A3009 RMK A01 T01560043  RH  047%=      5-min Rain = 0
KAD1 050111Z 19004KT 16/04 A3009 RMK A01 T01560042  RH  047%=      5-min Rain = 0
KAD1 050112Z 19004KT 16/04 A3009 RMK A01 T01550041  RH  046%=      5-min Rain = 0
KAD1 050113Z 19004KT 16/04 A3009 RMK A01 T01550043  RH  047%=      5-min Rain = 0
KAD1 050114Z 19005KT 16/04 A3009 RMK A01 T01550044  RH  047%=      5-min Rain = 0
KAD1 050115Z 19005KT 16/04 A3009 RMK A01 T01550042  RH  047%=      5-min Rain = 0
KAD1 050116Z 19005KT 16/04 A3009 RMK A01 T01550043  RH  047%=      5-min Rain = 0
KAD1 050117Z 19005KT 15/05 A3009 RMK A01 T01540045  RH  048%=      5-min Rain = 0
KAD1 050118Z 19005KT 15/05 A3009 RMK A01 T01530046  RH  049%=      5-min Rain = 0
KAD1 050119Z 19005KT 15/05 A3009 RMK A01 T01520045  RH  049%=      5-min Rain = 0
KAD1 050120Z 20005KT 15/04 A3009 RMK A01 T01510044  RH  049%=      5-min Rain = 0
KAD1 050121Z 19005KT 15/05 A3009 RMK A01 T01510045  RH  049%=      5-min Rain = 0
KAD1 050122Z 18005KT 15/05 A3009 RMK A01 T01490046  RH  050%=      5-min Rain = 0
KAD1 050123Z 18005KT 15/05 A3009 RMK A01 T01480046  RH  050%=      5-min Rain = 0
KAD1 050124Z 19005KT 15/05 A3009 RMK A01 T01480047  RH  051%=      5-min Rain = 0
KAD1 050125Z 19005KT 15/05 A3009 RMK A01 T01470047  RH  051%=      5-min Rain = 0
KAD1 050126Z 18005KT 15/05 A3009 RMK A01 T01460048  RH  052%=      5-min Rain = 0
KAD1 050127Z 18005KT 15/05 A3009 RMK A01 T01460050  RH  053%=      5-min Rain = 0
KAD1 050128Z 19005KT 15/05 A3009 RMK A01 T01450050  RH  053%=      5-min Rain = 0
KAD1 050129Z 19005KT 15/05 A3009 RMK A01 T01450051  RH  053%=      5-min Rain = 0
KAD1 050130Z 19005KT 15/05 A3009 RMK A01 T01450051  RH  053%=      5-min Rain = 0
KAD1 050131Z 18005KT 15/05 A3009 RMK A01 T01450052  RH  054%=      5-min Rain = 0
KAD1 050132Z 18004KT 15/05 A3009 RMK A01 T01450054  RH  054%=      5-min Rain = 0
KAD1 050133Z 18004KT 15/05 A3009 RMK A01 T01450054  RH  054%=      5-min Rain = 0
KAD1 050134Z 18004KT 15/05 A3009 RMK A01 T01450054  RH  054%=      5-min Rain = 0
KAD1 050135Z 18004KT 14/05 A3009 RMK A01 T01440054  RH  055%=      5-min Rain = 0
KAD1 050136Z 17004KT 14/06 A3009 RMK A01 T01440055  RH  055%=      5-min Rain = 0
KAD1 050137Z 17004KT 14/06 A3009 RMK A01 T01440055  RH  055%=      5-min Rain = 0
KAD1 050138Z 16004KT 14/06 A3009 RMK A01 T01430055  RH  055%=      5-min Rain = 0
KAD1 050139Z 15004KT 14/06 A3009 RMK A01 T01430057  RH  056%=      5-min Rain = 0
KAD1 050140Z 14005KT 14/06 A3009 RMK A01 T01410063  RH  059%=      5-min Rain = 0
KAD1 050141Z 15006KT 14/07 A3009 RMK A01 T01390065  RH  061%=      5-min Rain = 0
KAD1 050142Z 15006KT 14/06 A3009 RMK A01 T01370064  RH  061%=      5-min Rain = 0
KAD1 050143Z 15006KT 14/06 A3009 RMK A01 T01360062  RH  061%=      5-min Rain = 0
KAD1 050144Z 15006KT 14/06 A3009 RMK A01 T01350061  RH  061%=      5-min Rain = 0
KAD1 050145Z 15006KT 14/06 A3009 RMK A01 T01350060  RH  060%=      5-min Rain = 0
KAD1 050146Z 15006KT 14/06 A3009 RMK A01 T01350059  RH  060%=      5-min Rain = 0
KAD1 050147Z 15006KT 14/06 A3009 RMK A01 T01350059  RH  060%=      5-min Rain = 0
KAD1 050148Z 15006KT 14/06 A3009 RMK A01 T01350060  RH  060%=      5-min Rain = 0
KAD1 050149Z 15006KT 13/06 A3009 RMK A01 T01340060  RH  061%=      5-min Rain = 0
KAD1 050150Z 15006KT 13/06 A3009 RMK A01 T01330059  RH  061%=      5-min Rain = 0
KAD1 050151Z 15007KT 13/06 A3009 RMK A01 T01330060  RH  061%=      5-min Rain = 0
KAD1 050152Z 15007KT 13/06 A3009 RMK A01 T01320060  RH  062%=      5-min Rain = 0
KAD1 050153Z 15007KT 13/06 A3009 RMK A01 T01320060  RH  062%=      5-min Rain = 0
KAD1 050154Z 15007KT 13/06 A3009 RMK A01 T01310060  RH  062%=      5-min Rain = 0
KAD1 050155Z 14007KT 13/06 A3009 RMK A01 T01310061  RH  062%=      5-min Rain = 0
KAD1 050156Z 14008KT 13/06 A3009 RMK A01 T01300062  RH  063%=      5-min Rain = 0
KAD1 050157Z 14008KT 13/06 A3009 RMK A01 T01290062  RH  064%=      5-min Rain = 0
KAD1 050158Z 14008KT 13/06 A3009 RMK A01 T01280061  RH  064%=      5-min Rain = 0
KAD1 050159Z 14008KT 13/06 A3009 RMK A01 T01280061  RH  064%=      5-min Rain = 0
KAD1 050200Z 14008KT 13/06 A3009 RMK A01 T01280061  RH  064%=      5-min Rain = 0
KAD1 050201Z 14008KT 13/06 A3009 RMK A01 T01270061  RH  064%=      5-min Rain = 0
KAD1 050202Z 14009KT 13/06 A3009 RMK A01 T01270061  RH  064%=      5-min Rain = 0
KAD1 050203Z 14009KT 13/06 A3009 RMK A01 T01270060  RH  064%=      5-min Rain = 0
KAD1 050204Z 14009KT 13/06 A3009 RMK A01 T01270060  RH  064%=      5-min Rain = 0
KAD1 050205Z 14009KT 13/06 A3009 RMK A01 T01270059  RH  063%=      5-min Rain = 0
KAD1 050206Z 14009KT 13/06 A3008 RMK A01 T01280059  RH  063%=      5-min Rain = 0
KAD1 050207Z 14009KT 13/06 A3008 RMK A01 T01280057  RH  062%=      5-min Rain = 0
KAD1 050208Z 14009KT 13/06 A3008 RMK A01 T01290056  RH  061%=      5-min Rain = 0
KAD1 050209Z 14009KT 13/06 A3008 RMK A01 T01300056  RH  061%=      5-min Rain = 0
KAD1 050210Z 14009KT 13/06 A3008 RMK A01 T01300055  RH  060%=      5-min Rain = 0
KAD1 050211Z 14009KT 13/06 A3008 RMK A01 T01310055  RH  060%=      5-min Rain = 0
KAD1 050212Z 13009KT 13/06 A3008 RMK A01 T01310055  RH  060%=      5-min Rain = 0
KAD1 050213Z 14009KT 13/06 A3008 RMK A01 T01310055  RH  060%=      5-min Rain = 0
KAD1 050214Z 13009KT 13/05 A3008 RMK A01 T01310054  RH  060%=      5-min Rain = 0
KAD1 050215Z 13009KT 13/06 A3008 RMK A01 T01310055  RH  060%=      5-min Rain = 0
KAD1 050216Z 13009KT 13/06 A3008 RMK A01 T01310055  RH  060%=      5-min Rain = 0
KAD1 050217Z 13010KT 13/06 A3008 RMK A01 T01310055  RH  060%=      5-min Rain = 0
KAD1 050218Z 13010KT 13/05 A3008 RMK A01 T01310054  RH  060%=      5-min Rain = 0
KAD1 050219Z 13010KT 13/05 A3008 RMK A01 T01310054  RH  060%=      5-min Rain = 0
KAD1 050220Z 13011KT 13/05 A3008 RMK A01 T01310054  RH  060%=      5-min Rain = 0
KAD1 050221Z 13011KT 13/05 A3008 RMK A01 T01310052  RH  059%=      5-min Rain = 0
KAD1 050222Z 14011KT 13/05 A3008 RMK A01 T01320052  RH  059%=      5-min Rain = 0
KAD1 050223Z 14011KT 13/05 A3008 RMK A01 T01320052  RH  058%=      5-min Rain = 0
KAD1 050224Z 14011KT 13/05 A3009 RMK A01 T01320051  RH  058%=      5-min Rain = 0
KAD1 050225Z 13010KT 13/05 A3009 RMK A01 T01320050  RH  058%=      5-min Rain = 0
KAD1 050226Z 13010KT 13/05 A3009 RMK A01 T01320050  RH  057%=      5-min Rain = 0
KAD1 050227Z 13010KT 13/05 A3009 RMK A01 T01320050  RH  057%=      5-min Rain = 0
KAD1 050228Z 14009KT 13/05 A3009 RMK A01 T01320050  RH  058%=      5-min Rain = 0
KAD1 050229Z 13009KT 13/05 A3009 RMK A01 T01310050  RH  058%=      5-min Rain = 0
KAD1 050230Z 13009KT 13/05 A3009 RMK A01 T01310050  RH  058%=      5-min Rain = 0
KAD1 050231Z 14008KT 13/05 A3009 RMK A01 T01310051  RH  058%=      5-min Rain = 0
KAD1 050232Z 14009KT 13/05 A3009 RMK A01 T01300051  RH  059%=      5-min Rain = 0
KAD1 050233Z 14009KT 13/05 A3009 RMK A01 T01290051  RH  059%=      5-min Rain = 0
KAD1 050234Z 14011KT 13/05 A3009 RMK A01 T01290049  RH  058%=      5-min Rain = 0
KAD1 050235Z 13011KT 13/05 A3009 RMK A01 T01300049  RH  058%=      5-min Rain = 0
KAD1 050236Z 14012KT 13/05 A3009 RMK A01 T01300049  RH  058%=      5-min Rain = 0
KAD1 050237Z 14012KT 13/05 A3009 RMK A01 T01310049  RH  058%=      5-min Rain = 0
KAD1 050238Z 14011KT 13/05 A3009 RMK A01 T01310050  RH  058%=      5-min Rain = 0
KAD1 050239Z 14011KT 13/05 A3009 RMK A01 T01310051  RH  058%=      5-min Rain = 0
KAD1 050240Z 13012KT 13/05 A3009 RMK A01 T01300051  RH  058%=      5-min Rain = 0
KAD1 050241Z 14012KT 13/05 A3009 RMK A01 T01290052  RH  059%=      5-min Rain = 0
KAD1 050242Z 14011KT 13/05 A3009 RMK A01 T01290052  RH  060%=      5-min Rain = 0
KAD1 050243Z 13012KT 13/05 A3009 RMK A01 T01280052  RH  060%=      5-min Rain = 0
KAD1 050244Z 14013KT 13/05 A3009 RMK A01 T01270052  RH  060%=      5-min Rain = 0
KAD1 050245Z 14012KT 13/05 A3008 RMK A01 T01270051  RH  060%=      5-min Rain = 0
KAD1 050246Z 13012KT 13/05 A3008 RMK A01 T01270052  RH  060%=      5-min Rain = 0
KAD1 050247Z 13012KT 13/05 A3008 RMK A01 T01260053  RH  061%=      5-min Rain = 0
KAD1 050248Z 13013KT 13/05 A3008 RMK A01 T01260053  RH  061%=      5-min Rain = 0
KAD1 050249Z 13013KT 13/05 A3008 RMK A01 T01260053  RH  061%=      5-min Rain = 0
KAD1 050250Z 14013KT 13/05 A3008 RMK A01 T01260053  RH  061%=      5-min Rain = 0
KAD1 050251Z 13012KT 13/05 A3009 RMK A01 T01250053  RH  061%=      5-min Rain = 0
KAD1 050252Z 14013KT 13/05 A3009 RMK A01 T01250053  RH  061%=      5-min Rain = 0
KAD1 050253Z 13012KT 13/05 A3009 RMK A01 T01250053  RH  061%=      5-min Rain = 0
KAD1 050254Z 13013KT 13/05 A3009 RMK A01 T01250053  RH  062%=      5-min Rain = 0
KAD1 050255Z 14013KT 12/05 A3009 RMK A01 T01240053  RH  062%=      5-min Rain = 0
KAD1 050256Z 14013KT 12/05 A3009 RMK A01 T01240052  RH  062%=      5-min Rain = 0
KAD1 050257Z 14013KT 12/05 A3009 RMK A01 T01240052  RH  062%=      5-min Rain = 0
KAD1 050258Z 14013KT 12/05 A3009 RMK A01 T01240052  RH  062%=      5-min Rain = 0
KAD1 050259Z 14012KT 12/05 A3009 RMK A01 T01240052  RH  061%=      5-min Rain = 0
KAD1 050300Z 14012KT 12/05 A3009 RMK A01 T01240052  RH  061%=      5-min Rain = 0
KAD1 050301Z 14012KT 12/05 A3009 RMK A01 T01240052  RH  061%=      5-min Rain = 0
KAD1 050302Z 15013KT 12/05 A3009 RMK A01 T01240052  RH  061%=      5-min Rain = 0
KAD1 050303Z 14013KT 12/05 A3009 RMK A01 T01240052  RH  061%=      5-min Rain = 0
KAD1 050304Z 14012KT 12/05 A301 RMK A01 T01240052  RH  061%=      5-min Rain = 0
KAD1 050305Z 15013KT 12/05 A301 RMK A01 T01240052  RH  061%=      5-min Rain = 0
KAD1 050306Z 14012KT 12/05 A301 RMK A01 T01240051  RH  061%=      5-min Rain = 0
KAD1 050307Z 15012KT 12/05 A301 RMK A01 T01240052  RH  061%=      5-min Rain = 0
KAD1 050308Z 15012KT 12/05 A301 RMK A01 T01230052  RH  061%=      5-min Rain = 0
KAD1 050309Z 15012KT 12/05 A301 RMK A01 T01240051  RH  061%=      5-min Rain = 0
KAD1 050310Z 15011KT 12/05 A301 RMK A01 T01240051  RH  061%=      5-min Rain = 0
KAD1 050311Z 15011KT 12/05 A301 RMK A01 T01230052  RH  062%=      5-min Rain = 0
KAD1 050312Z 14011KT 12/05 A301 RMK A01 T01230052  RH  062%=      5-min Rain = 0
KAD1 050313Z 15012KT 12/05 A301 RMK A01 T01230052  RH  062%=      5-min Rain = 0
KAD1 050314Z 15011KT 12/05 A301 RMK A01 T01230052  RH  062%=      5-min Rain = 0
KAD1 050315Z 15011KT 12/05 A301 RMK A01 T01220051  RH  062%=      5-min Rain = 0
KAD1 050316Z 15012KT 12/05 A301 RMK A01 T01220052  RH  062%=      5-min Rain = 0
KAD1 050317Z 15012KT 12/05 A301 RMK A01 T01210052  RH  063%=      5-min Rain = 0
KAD1 050318Z 15011KT 12/05 A301 RMK A01 T01210053  RH  063%=      5-min Rain = 0
KAD1 050319Z 15012KT 12/05 A301 RMK A01 T01200053  RH  063%=      5-min Rain = 0
KAD1 050320Z 15011KT 12/05 A301 RMK A01 T01190053  RH  064%=      5-min Rain = 0
KAD1 050321Z 15011KT 12/05 A3011 RMK A01 T01190053  RH  064%=      5-min Rain = 0
KAD1 050322Z 15011KT 12/05 A3011 RMK A01 T01180053  RH  064%=      5-min Rain = 0
KAD1 050323Z 15011KT 12/05 A3011 RMK A01 T01180053  RH  065%=      5-min Rain = 0
KAD1 050324Z 15011KT 12/05 A3011 RMK A01 T01170053  RH  065%=      5-min Rain = 0
KAD1 050325Z 16011KT 12/05 A3011 RMK A01 T01170054  RH  065%=      5-min Rain = 0
KAD1 050326Z 15011KT 12/05 A3011 RMK A01 T01160054  RH  066%=      5-min Rain = 0
KAD1 050327Z 15011KT 12/05 A3011 RMK A01 T01160054  RH  066%=      5-min Rain = 0
KAD1 050328Z 15011KT 12/05 A3011 RMK A01 T01150054  RH  066%=      5-min Rain = 0
KAD1 050329Z 15011KT 12/05 A3011 RMK A01 T01150054  RH  066%=      5-min Rain = 0
KAD1 050330Z 15011KT 12/06 A3011 RMK A01 T01150055  RH  067%=      5-min Rain = 0
KAD1 050331Z 15011KT 11/06 A3011 RMK A01 T01140055  RH  067%=      5-min Rain = 0
KAD1 050332Z 15011KT 11/06 A3011 RMK A01 T01140055  RH  067%=      5-min Rain = 0
KAD1 050333Z 15010KT 11/06 A3011 RMK A01 T01140055  RH  067%=      5-min Rain = 0
KAD1 050334Z 15010KT 11/06 A3011 RMK A01 T01130055  RH  068%=      5-min Rain = 0
KAD1 050335Z 15011KT 11/06 A3011 RMK A01 T01130055  RH  067%=      5-min Rain = 0
KAD1 050336Z 15010KT 11/06 A3011 RMK A01 T01130055  RH  067%=      5-min Rain = 0
KAD1 050337Z 15011KT 11/06 A3011 RMK A01 T01130055  RH  068%=      5-min Rain = 0
KAD1 050338Z 15010KT 11/06 A3011 RMK A01 T01130055  RH  068%=      5-min Rain = 0
KAD1 050339Z 15010KT 11/06 A3011 RMK A01 T01120055  RH  068%=      5-min Rain = 0
KAD1 050340Z 15011KT 11/06 A3011 RMK A01 T01120055  RH  068%=      5-min Rain = 0
KAD1 050341Z 15011KT 11/06 A3011 RMK A01 T01120055  RH  068%=      5-min Rain = 0
KAD1 050342Z 15011KT 11/05 A3011 RMK A01 T01120054  RH  068%=      5-min Rain = 0
KAD1 050343Z 15011KT 11/05 A3012 RMK A01 T01120054  RH  067%=      5-min Rain = 0
KAD1 050344Z 15011KT 11/05 A3012 RMK A01 T01130054  RH  067%=      5-min Rain = 0
KAD1 050345Z 16010KT 11/06 A3012 RMK A01 T01120055  RH  068%=      5-min Rain = 0
KAD1 050346Z 16011KT 11/06 A3012 RMK A01 T01120055  RH  068%=      5-min Rain = 0
KAD1 050347Z 16011KT 11/06 A3012 RMK A01 T01120055  RH  068%=      5-min Rain = 0
KAD1 050348Z 16012KT 11/06 A3012 RMK A01 T01120055  RH  068%=      5-min Rain = 0
KAD1 050349Z 16012KT 11/05 A3012 RMK A01 T01110054  RH  068%=      5-min Rain = 0
KAD1 050350Z 16011KT 11/05 A3012 RMK A01 T01110054  RH  068%=      5-min Rain = 0
KAD1 050351Z 16012KT 11/05 A3012 RMK A01 T01110054  RH  068%=      5-min Rain = 0
KAD1 050352Z 16011KT 11/05 A3012 RMK A01 T01110054  RH  068%=      5-min Rain = 0
KAD1 050353Z 16011KT 11/05 A3012 RMK A01 T01100054  RH  068%=      5-min Rain = 0
KAD1 050354Z 15011KT 11/05 A3012 RMK A01 T01100054  RH  069%=      5-min Rain = 0
KAD1 050355Z 16011KT 11/05 A3012 RMK A01 T01090054  RH  069%=      5-min Rain = 0
KAD1 050356Z 16011KT 11/05 A3012 RMK A01 T01090054  RH  069%=      5-min Rain = 0
KAD1 050357Z 16011KT 11/05 A3012 RMK A01 T01090054  RH  069%=      5-min Rain = 0
KAD1 050358Z 16011KT 11/05 A3012 RMK A01 T01090054  RH  069%=      5-min Rain = 0
KAD1 050359Z 16011KT 11/05 A3012 RMK A01 T01090054  RH  069%=      5-min Rain = 0
KAD1 050400Z 16012KT 11/05 A3012 RMK A01 T01090054  RH  069%=      5-min Rain = 0
KAD1 050401Z 16012KT 11/05 A3012 RMK A01 T01090054  RH  069%=      5-min Rain = 0
KAD1 050402Z 16011KT 11/05 A3012 RMK A01 T01090054  RH  069%=      5-min Rain = 0
KAD1 050403Z 16011KT 11/05 A3012 RMK A01 T01090054  RH  069%=      5-min Rain = 0
KAD1 050404Z 16012KT 11/05 A3012 RMK A01 T01080054  RH  069%=      5-min Rain = 0
KAD1 050405Z 16011KT 11/05 A3012 RMK A01 T01080054  RH  069%=      5-min Rain = 0
KAD1 050406Z 16011KT 11/05 A3012 RMK A01 T01080054  RH  069%=      5-min Rain = 0
KAD1 050407Z 16012KT 11/06 A3012 RMK A01 T01070055  RH  070%=      5-min Rain = 0
KAD1 050408Z 16012KT 11/05 A3012 RMK A01 T01060054  RH  070%=      5-min Rain = 0
KAD1 050409Z 16012KT 11/05 A3012 RMK A01 T01060054  RH  070%=      5-min Rain = 0
KAD1 050410Z 16011KT 11/05 A3012 RMK A01 T01060054  RH  070%=      5-min Rain = 0
KAD1 050411Z 16011KT 11/06 A3012 RMK A01 T01070055  RH  070%=      5-min Rain = 0
KAD1 050412Z 16011KT 11/06 A3012 RMK A01 T01060055  RH  070%=      5-min Rain = 0
KAD1 050413Z 16012KT 11/05 A3012 RMK A01 T01060054  RH  070%=      5-min Rain = 0
KAD1 050414Z 16012KT 11/06 A3012 RMK A01 T01060055  RH  070%=      5-min Rain = 0
KAD1 050415Z 16011KT 11/06 A3012 RMK A01 T01060055  RH  071%=      5-min Rain = 0
KAD1 050416Z 16011KT 11/06 A3012 RMK A01 T01060055  RH  071%=      5-min Rain = 0
KAD1 050417Z 16011KT 11/06 A3012 RMK A01 T01060056  RH  071%=      5-min Rain = 0
KAD1 050418Z 16011KT 11/06 A3012 RMK A01 T01050056  RH  071%=      5-min Rain = 0
KAD1 050419Z 16010KT 11/06 A3012 RMK A01 T01050056  RH  072%=      5-min Rain = 0
KAD1 050420Z 16011KT 10/06 A3012 RMK A01 T01040056  RH  072%=      5-min Rain = 0
KAD1 050421Z 16010KT 10/06 A3012 RMK A01 T01040056  RH  072%=      5-min Rain = 0
KAD1 050422Z 16011KT 10/06 A3012 RMK A01 T01040056  RH  072%=      5-min Rain = 0
KAD1 050423Z 16011KT 10/06 A3012 RMK A01 T01030056  RH  072%=      5-min Rain = 0
KAD1 050424Z 16010KT 10/06 A3012 RMK A01 T01030056  RH  072%=      5-min Rain = 0
KAD1 050425Z 16010KT 10/06 A3012 RMK A01 T01030056  RH  072%=      5-min Rain = 0
KAD1 050426Z 16010KT 10/06 A3012 RMK A01 T01030056  RH  072%=      5-min Rain = 0
KAD1 050427Z 16010KT 10/06 A3012 RMK A01 T01030056  RH  073%=      5-min Rain = 0
KAD1 050428Z 16011KT 10/06 A3012 RMK A01 T01030056  RH  073%=      5-min Rain = 0
KAD1 050429Z 16011KT 10/06 A3012 RMK A01 T01030056  RH  073%=      5-min Rain = 0
KAD1 050430Z 16011KT 10/06 A3012 RMK A01 T01030056  RH  073%=      5-min Rain = 0
KAD1 050431Z 16011KT 10/06 A3012 RMK A01 T01030056  RH  073%=      5-min Rain = 0
KAD1 050432Z 16011KT 10/06 A3012 RMK A01 T01030056  RH  073%=      5-min Rain = 0
KAD1 050433Z 16010KT 10/06 A3012 RMK A01 T01030057  RH  073%=      5-min Rain = 0
KAD1 050434Z 16011KT 10/06 A3012 RMK A01 T01030057  RH  073%=      5-min Rain = 0
KAD1 050435Z 16011KT 10/06 A3012 RMK A01 T01030057  RH  073%=      5-min Rain = 0
KAD1 050436Z 16011KT 10/06 A3012 RMK A01 T01030056  RH  073%=      5-min Rain = 0
KAD1 050437Z 16011KT 10/06 A3012 RMK A01 T01030056  RH  073%=      5-min Rain = 0
KAD1 050438Z 16011KT 10/06 A3012 RMK A01 T01040057  RH  073%=      5-min Rain = 0
KAD1 050439Z 16011KT 10/06 A3012 RMK A01 T01030056  RH  073%=      5-min Rain = 0
KAD1 050440Z 16011KT 10/06 A3012 RMK A01 T01030056  RH  072%=      5-min Rain = 0
KAD1 050441Z 16011KT 10/06 A3012 RMK A01 T01040056  RH  072%=      5-min Rain = 0
KAD1 050442Z 16012KT 10/06 A3012 RMK A01 T01040056  RH  072%=      5-min Rain = 0
KAD1 050443Z 16011KT 10/06 A3012 RMK A01 T01040056  RH  072%=      5-min Rain = 0
KAD1 050444Z 16012KT 10/06 A3012 RMK A01 T01040057  RH  072%=      5-min Rain = 0
KAD1 050445Z 16012KT 10/06 A3012 RMK A01 T01040056  RH  072%=      5-min Rain = 0
KAD1 050446Z 16012KT 10/06 A3012 RMK A01 T01040057  RH  073%=      5-min Rain = 0
KAD1 050447Z 16011KT 10/06 A3012 RMK A01 T01040057  RH  073%=      5-min Rain = 0
KAD1 050448Z 16011KT 10/06 A3012 RMK A01 T01040057  RH  073%=      5-min Rain = 0
KAD1 050449Z 16011KT 10/06 A3012 RMK A01 T01030057  RH  073%=      5-min Rain = 0
KAD1 050450Z 17011KT 10/06 A3012 RMK A01 T01030057  RH  073%=      5-min Rain = 0
KAD1 050451Z 16012KT 10/06 A3012 RMK A01 T01040057  RH  073%=      5-min Rain = 0
KAD1 050452Z 16012KT 10/06 A3012 RMK A01 T01040056  RH  072%=      5-min Rain = 0
KAD1 050453Z 16012KT 11/06 A3011 RMK A01 T01050056  RH  072%=      5-min Rain = 0
KAD1 050454Z 16012KT 11/06 A3011 RMK A01 T01050056  RH  072%=      5-min Rain = 0
KAD1 050455Z 16013KT 11/06 A3011 RMK A01 T01050056  RH  072%=      5-min Rain = 0
KAD1 050456Z 16013KT 11/06 A3011 RMK A01 T01050056  RH  072%=      5-min Rain = 0
KAD1 050457Z 16012KT 11/06 A3011 RMK A01 T01060056  RH  071%=      5-min Rain = 0
KAD1 050458Z 16012KT 11/06 A3011 RMK A01 T01060056  RH  071%=      5-min Rain = 0
KAD1 050459Z 16012KT 11/06 A3011 RMK A01 T01060056  RH  072%=      5-min Rain = 0

Page generated in 0.1201 seconds.